<?xml version="1.0" encoding="UTF-8" standalone="no" ?>
<gpx xmlns="http://www.topografix.com/GPX/1/1" xmlns:xsi="http://www.w3.org/2001/XMLSchema-instance" xsi:schemaLocation="http://www.topografix.com/GPX/1/1 http://www.topografix.com/GPX/1/1/gpx.xsd" version="1.1" creator="VisuGPX - https://www.visugpx.com">
  <metadata>
    <name>pr10variante 2</name>
    <desc><![CDATA[ras possibilité  très belle rando en vtt]]></desc>
  </metadata>
  <trk>
    <name><![CDATA[Tracé 30 nov. 2015 09:42:41]]></name>
    <trkseg>
      <trkpt lat="44.99441" lon="4.51609">
        <ele>445</ele>
        <time>2015-11-30T08:42:41Z</time>
      </trkpt>
      <trkpt lat="44.99441" lon="4.51602">
        <ele>443</ele>
        <time>2015-11-30T08:43:06Z</time>
      </trkpt>
      <trkpt lat="44.99435" lon="4.51627">
        <ele>429</ele>
        <time>2015-11-30T08:43:10Z</time>
      </trkpt>
      <trkpt lat="44.99442" lon="4.51621">
        <ele>435</ele>
        <time>2015-11-30T08:43:19Z</time>
      </trkpt>
      <trkpt lat="44.99448" lon="4.51614">
        <ele>422</ele>
        <time>2015-11-30T08:43:27Z</time>
      </trkpt>
      <trkpt lat="44.99456" lon="4.51617">
        <ele>421</ele>
        <time>2015-11-30T08:43:35Z</time>
      </trkpt>
      <trkpt lat="44.99463" lon="4.51622">
        <ele>421</ele>
        <time>2015-11-30T08:43:45Z</time>
      </trkpt>
      <trkpt lat="44.99474" lon="4.51626">
        <ele>420</ele>
        <time>2015-11-30T08:43:50Z</time>
      </trkpt>
      <trkpt lat="44.99479" lon="4.51639">
        <ele>422</ele>
        <time>2015-11-30T08:43:53Z</time>
      </trkpt>
      <trkpt lat="44.99487" lon="4.51644">
        <ele>422</ele>
        <time>2015-11-30T08:43:57Z</time>
      </trkpt>
      <trkpt lat="44.99495" lon="4.51639">
        <ele>422</ele>
        <time>2015-11-30T08:44:01Z</time>
      </trkpt>
      <trkpt lat="44.99505" lon="4.51629">
        <ele>422</ele>
        <time>2015-11-30T08:44:05Z</time>
      </trkpt>
      <trkpt lat="44.9951" lon="4.51618">
        <ele>421</ele>
        <time>2015-11-30T08:44:09Z</time>
      </trkpt>
      <trkpt lat="44.99514" lon="4.51604">
        <ele>420</ele>
        <time>2015-11-30T08:44:13Z</time>
      </trkpt>
      <trkpt lat="44.99518" lon="4.51595">
        <ele>419</ele>
        <time>2015-11-30T08:44:16Z</time>
      </trkpt>
      <trkpt lat="44.99522" lon="4.51583">
        <ele>419</ele>
        <time>2015-11-30T08:44:20Z</time>
      </trkpt>
      <trkpt lat="44.99525" lon="4.51575">
        <ele>419</ele>
        <time>2015-11-30T08:44:23Z</time>
      </trkpt>
      <trkpt lat="44.99527" lon="4.51563">
        <ele>419</ele>
        <time>2015-11-30T08:44:27Z</time>
      </trkpt>
      <trkpt lat="44.99527" lon="4.51553">
        <ele>418</ele>
        <time>2015-11-30T08:44:30Z</time>
      </trkpt>
      <trkpt lat="44.99528" lon="4.51544">
        <ele>418</ele>
        <time>2015-11-30T08:44:33Z</time>
      </trkpt>
      <trkpt lat="44.99532" lon="4.51529">
        <ele>417</ele>
        <time>2015-11-30T08:44:38Z</time>
      </trkpt>
      <trkpt lat="44.99532" lon="4.5152">
        <ele>417</ele>
        <time>2015-11-30T08:44:41Z</time>
      </trkpt>
      <trkpt lat="44.99535" lon="4.51507">
        <ele>417</ele>
        <time>2015-11-30T08:44:45Z</time>
      </trkpt>
      <trkpt lat="44.99538" lon="4.51496">
        <ele>416</ele>
        <time>2015-11-30T08:44:49Z</time>
      </trkpt>
      <trkpt lat="44.99543" lon="4.51486">
        <ele>416</ele>
        <time>2015-11-30T08:44:53Z</time>
      </trkpt>
      <trkpt lat="44.99551" lon="4.51478">
        <ele>417</ele>
        <time>2015-11-30T08:44:58Z</time>
      </trkpt>
      <trkpt lat="44.99557" lon="4.51476">
        <ele>417</ele>
        <time>2015-11-30T08:45:02Z</time>
      </trkpt>
      <trkpt lat="44.99564" lon="4.51474">
        <ele>418</ele>
        <time>2015-11-30T08:45:06Z</time>
      </trkpt>
      <trkpt lat="44.99571" lon="4.51473">
        <ele>420</ele>
        <time>2015-11-30T08:45:11Z</time>
      </trkpt>
      <trkpt lat="44.99577" lon="4.5148">
        <ele>423</ele>
        <time>2015-11-30T08:45:15Z</time>
      </trkpt>
      <trkpt lat="44.99585" lon="4.51478">
        <ele>424</ele>
        <time>2015-11-30T08:45:19Z</time>
      </trkpt>
      <trkpt lat="44.99593" lon="4.51464">
        <ele>427</ele>
        <time>2015-11-30T08:45:24Z</time>
      </trkpt>
      <trkpt lat="44.99598" lon="4.5145">
        <ele>429</ele>
        <time>2015-11-30T08:45:29Z</time>
      </trkpt>
      <trkpt lat="44.996" lon="4.51438">
        <ele>432</ele>
        <time>2015-11-30T08:45:33Z</time>
      </trkpt>
      <trkpt lat="44.99602" lon="4.51425">
        <ele>434</ele>
        <time>2015-11-30T08:45:37Z</time>
      </trkpt>
      <trkpt lat="44.99606" lon="4.51411">
        <ele>436</ele>
        <time>2015-11-30T08:45:42Z</time>
      </trkpt>
      <trkpt lat="44.99607" lon="4.51399">
        <ele>437</ele>
        <time>2015-11-30T08:45:46Z</time>
      </trkpt>
      <trkpt lat="44.99609" lon="4.5139">
        <ele>436</ele>
        <time>2015-11-30T08:45:49Z</time>
      </trkpt>
      <trkpt lat="44.99613" lon="4.51379">
        <ele>437</ele>
        <time>2015-11-30T08:45:53Z</time>
      </trkpt>
      <trkpt lat="44.99617" lon="4.51369">
        <ele>439</ele>
        <time>2015-11-30T08:45:58Z</time>
      </trkpt>
      <trkpt lat="44.99618" lon="4.51359">
        <ele>441</ele>
        <time>2015-11-30T08:46:04Z</time>
      </trkpt>
      <trkpt lat="44.9962" lon="4.51347">
        <ele>442</ele>
        <time>2015-11-30T08:46:10Z</time>
      </trkpt>
      <trkpt lat="44.99622" lon="4.51337">
        <ele>443</ele>
        <time>2015-11-30T08:46:16Z</time>
      </trkpt>
      <trkpt lat="44.99623" lon="4.51326">
        <ele>444</ele>
        <time>2015-11-30T08:46:22Z</time>
      </trkpt>
      <trkpt lat="44.99622" lon="4.51317">
        <ele>446</ele>
        <time>2015-11-30T08:46:27Z</time>
      </trkpt>
      <trkpt lat="44.99614" lon="4.51311">
        <ele>447</ele>
        <time>2015-11-30T08:46:32Z</time>
      </trkpt>
      <trkpt lat="44.99606" lon="4.51309">
        <ele>449</ele>
        <time>2015-11-30T08:46:39Z</time>
      </trkpt>
      <trkpt lat="44.99599" lon="4.51312">
        <ele>450</ele>
        <time>2015-11-30T08:46:44Z</time>
      </trkpt>
      <trkpt lat="44.99591" lon="4.51318">
        <ele>451</ele>
        <time>2015-11-30T08:46:51Z</time>
      </trkpt>
      <trkpt lat="44.99585" lon="4.51315">
        <ele>451</ele>
        <time>2015-11-30T08:46:55Z</time>
      </trkpt>
      <trkpt lat="44.99575" lon="4.5131">
        <ele>452</ele>
        <time>2015-11-30T08:47:00Z</time>
      </trkpt>
      <trkpt lat="44.99565" lon="4.51307">
        <ele>452</ele>
        <time>2015-11-30T08:47:04Z</time>
      </trkpt>
      <trkpt lat="44.99554" lon="4.51303">
        <ele>453</ele>
        <time>2015-11-30T08:47:09Z</time>
      </trkpt>
      <trkpt lat="44.99547" lon="4.51299">
        <ele>454</ele>
        <time>2015-11-30T08:47:13Z</time>
      </trkpt>
      <trkpt lat="44.99542" lon="4.51292">
        <ele>454</ele>
        <time>2015-11-30T08:47:17Z</time>
      </trkpt>
      <trkpt lat="44.99539" lon="4.51282">
        <ele>455</ele>
        <time>2015-11-30T08:47:21Z</time>
      </trkpt>
      <trkpt lat="44.99535" lon="4.51274">
        <ele>457</ele>
        <time>2015-11-30T08:47:26Z</time>
      </trkpt>
      <trkpt lat="44.9953" lon="4.51266">
        <ele>458</ele>
        <time>2015-11-30T08:47:34Z</time>
      </trkpt>
      <trkpt lat="44.99525" lon="4.51255">
        <ele>460</ele>
        <time>2015-11-30T08:47:42Z</time>
      </trkpt>
      <trkpt lat="44.99522" lon="4.51247">
        <ele>461</ele>
        <time>2015-11-30T08:47:47Z</time>
      </trkpt>
      <trkpt lat="44.99519" lon="4.51238">
        <ele>461</ele>
        <time>2015-11-30T08:47:51Z</time>
      </trkpt>
      <trkpt lat="44.99516" lon="4.51228">
        <ele>462</ele>
        <time>2015-11-30T08:47:55Z</time>
      </trkpt>
      <trkpt lat="44.99512" lon="4.51218">
        <ele>463</ele>
        <time>2015-11-30T08:48:00Z</time>
      </trkpt>
      <trkpt lat="44.99509" lon="4.51211">
        <ele>464</ele>
        <time>2015-11-30T08:48:03Z</time>
      </trkpt>
      <trkpt lat="44.99503" lon="4.51203">
        <ele>465</ele>
        <time>2015-11-30T08:48:07Z</time>
      </trkpt>
      <trkpt lat="44.99498" lon="4.51192">
        <ele>465</ele>
        <time>2015-11-30T08:48:12Z</time>
      </trkpt>
      <trkpt lat="44.99491" lon="4.51185">
        <ele>467</ele>
        <time>2015-11-30T08:48:17Z</time>
      </trkpt>
      <trkpt lat="44.99485" lon="4.51181">
        <ele>469</ele>
        <time>2015-11-30T08:48:21Z</time>
      </trkpt>
      <trkpt lat="44.99477" lon="4.51177">
        <ele>470</ele>
        <time>2015-11-30T08:48:25Z</time>
      </trkpt>
      <trkpt lat="44.99467" lon="4.51176">
        <ele>472</ele>
        <time>2015-11-30T08:48:30Z</time>
      </trkpt>
      <trkpt lat="44.9946" lon="4.51172">
        <ele>473</ele>
        <time>2015-11-30T08:48:35Z</time>
      </trkpt>
      <trkpt lat="44.99452" lon="4.5117">
        <ele>474</ele>
        <time>2015-11-30T08:48:40Z</time>
      </trkpt>
      <trkpt lat="44.99443" lon="4.51163">
        <ele>475</ele>
        <time>2015-11-30T08:48:45Z</time>
      </trkpt>
      <trkpt lat="44.99437" lon="4.5116">
        <ele>477</ele>
        <time>2015-11-30T08:48:48Z</time>
      </trkpt>
      <trkpt lat="44.99428" lon="4.51159">
        <ele>478</ele>
        <time>2015-11-30T08:48:53Z</time>
      </trkpt>
      <trkpt lat="44.99423" lon="4.51155">
        <ele>480</ele>
        <time>2015-11-30T08:48:56Z</time>
      </trkpt>
      <trkpt lat="44.99418" lon="4.5115">
        <ele>481</ele>
        <time>2015-11-30T08:48:59Z</time>
      </trkpt>
      <trkpt lat="44.99412" lon="4.51142">
        <ele>483</ele>
        <time>2015-11-30T08:49:03Z</time>
      </trkpt>
      <trkpt lat="44.99405" lon="4.51133">
        <ele>485</ele>
        <time>2015-11-30T08:49:07Z</time>
      </trkpt>
      <trkpt lat="44.99398" lon="4.51123">
        <ele>486</ele>
        <time>2015-11-30T08:49:11Z</time>
      </trkpt>
      <trkpt lat="44.99394" lon="4.51108">
        <ele>488</ele>
        <time>2015-11-30T08:49:16Z</time>
      </trkpt>
      <trkpt lat="44.9939" lon="4.511">
        <ele>489</ele>
        <time>2015-11-30T08:49:19Z</time>
      </trkpt>
      <trkpt lat="44.99387" lon="4.51092">
        <ele>490</ele>
        <time>2015-11-30T08:49:23Z</time>
      </trkpt>
      <trkpt lat="44.99383" lon="4.51084">
        <ele>490</ele>
        <time>2015-11-30T08:49:27Z</time>
      </trkpt>
      <trkpt lat="44.9938" lon="4.51074">
        <ele>491</ele>
        <time>2015-11-30T08:49:31Z</time>
      </trkpt>
      <trkpt lat="44.99375" lon="4.51063">
        <ele>492</ele>
        <time>2015-11-30T08:49:36Z</time>
      </trkpt>
      <trkpt lat="44.99371" lon="4.51054">
        <ele>493</ele>
        <time>2015-11-30T08:49:40Z</time>
      </trkpt>
      <trkpt lat="44.99367" lon="4.51038">
        <ele>494</ele>
        <time>2015-11-30T08:49:45Z</time>
      </trkpt>
      <trkpt lat="44.99366" lon="4.51032">
        <ele>494</ele>
        <time>2015-11-30T08:49:47Z</time>
      </trkpt>
      <trkpt lat="44.9936" lon="4.51015">
        <ele>497</ele>
        <time>2015-11-30T08:49:54Z</time>
      </trkpt>
      <trkpt lat="44.99357" lon="4.51004">
        <ele>499</ele>
        <time>2015-11-30T08:49:59Z</time>
      </trkpt>
      <trkpt lat="44.99356" lon="4.51001">
        <ele>500</ele>
        <time>2015-11-30T08:50:01Z</time>
      </trkpt>
      <trkpt lat="44.99353" lon="4.50992">
        <ele>500</ele>
        <time>2015-11-30T08:50:06Z</time>
      </trkpt>
      <trkpt lat="44.9935" lon="4.50983">
        <ele>501</ele>
        <time>2015-11-30T08:50:11Z</time>
      </trkpt>
      <trkpt lat="44.99351" lon="4.50972">
        <ele>502</ele>
        <time>2015-11-30T08:50:17Z</time>
      </trkpt>
      <trkpt lat="44.99355" lon="4.50963">
        <ele>502</ele>
        <time>2015-11-30T08:50:22Z</time>
      </trkpt>
      <trkpt lat="44.99357" lon="4.50955">
        <ele>504</ele>
        <time>2015-11-30T08:50:25Z</time>
      </trkpt>
      <trkpt lat="44.99362" lon="4.50944">
        <ele>505</ele>
        <time>2015-11-30T08:50:29Z</time>
      </trkpt>
      <trkpt lat="44.99367" lon="4.50935">
        <ele>507</ele>
        <time>2015-11-30T08:50:33Z</time>
      </trkpt>
      <trkpt lat="44.99372" lon="4.5092">
        <ele>508</ele>
        <time>2015-11-30T08:50:38Z</time>
      </trkpt>
      <trkpt lat="44.99375" lon="4.50912">
        <ele>509</ele>
        <time>2015-11-30T08:50:41Z</time>
      </trkpt>
      <trkpt lat="44.99379" lon="4.50901">
        <ele>510</ele>
        <time>2015-11-30T08:50:45Z</time>
      </trkpt>
      <trkpt lat="44.99385" lon="4.50891">
        <ele>511</ele>
        <time>2015-11-30T08:50:49Z</time>
      </trkpt>
      <trkpt lat="44.99393" lon="4.50877">
        <ele>513</ele>
        <time>2015-11-30T08:50:55Z</time>
      </trkpt>
      <trkpt lat="44.994" lon="4.50867">
        <ele>515</ele>
        <time>2015-11-30T08:51:00Z</time>
      </trkpt>
      <trkpt lat="44.99412" lon="4.50848">
        <ele>517</ele>
        <time>2015-11-30T08:51:10Z</time>
      </trkpt>
      <trkpt lat="44.99414" lon="4.50841">
        <ele>519</ele>
        <time>2015-11-30T08:51:14Z</time>
      </trkpt>
      <trkpt lat="44.99417" lon="4.50832">
        <ele>520</ele>
        <time>2015-11-30T08:51:18Z</time>
      </trkpt>
      <trkpt lat="44.99422" lon="4.50825">
        <ele>521</ele>
        <time>2015-11-30T08:51:22Z</time>
      </trkpt>
      <trkpt lat="44.99429" lon="4.50814">
        <ele>523</ele>
        <time>2015-11-30T08:51:27Z</time>
      </trkpt>
      <trkpt lat="44.99434" lon="4.50808">
        <ele>525</ele>
        <time>2015-11-30T08:51:31Z</time>
      </trkpt>
      <trkpt lat="44.99439" lon="4.50799">
        <ele>527</ele>
        <time>2015-11-30T08:51:35Z</time>
      </trkpt>
      <trkpt lat="44.99444" lon="4.50789">
        <ele>528</ele>
        <time>2015-11-30T08:51:39Z</time>
      </trkpt>
      <trkpt lat="44.99449" lon="4.5078">
        <ele>530</ele>
        <time>2015-11-30T08:51:44Z</time>
      </trkpt>
      <trkpt lat="44.99452" lon="4.50773">
        <ele>531</ele>
        <time>2015-11-30T08:51:48Z</time>
      </trkpt>
      <trkpt lat="44.99457" lon="4.50765">
        <ele>532</ele>
        <time>2015-11-30T08:51:52Z</time>
      </trkpt>
      <trkpt lat="44.99463" lon="4.50757">
        <ele>534</ele>
        <time>2015-11-30T08:51:56Z</time>
      </trkpt>
      <trkpt lat="44.9947" lon="4.50748">
        <ele>537</ele>
        <time>2015-11-30T08:52:02Z</time>
      </trkpt>
      <trkpt lat="44.99474" lon="4.50739">
        <ele>539</ele>
        <time>2015-11-30T08:52:08Z</time>
      </trkpt>
      <trkpt lat="44.99474" lon="4.50727">
        <ele>542</ele>
        <time>2015-11-30T08:52:18Z</time>
      </trkpt>
      <trkpt lat="44.99479" lon="4.50719">
        <ele>544</ele>
        <time>2015-11-30T08:52:23Z</time>
      </trkpt>
      <trkpt lat="44.99485" lon="4.50711">
        <ele>546</ele>
        <time>2015-11-30T08:52:28Z</time>
      </trkpt>
      <trkpt lat="44.99488" lon="4.50702">
        <ele>548</ele>
        <time>2015-11-30T08:52:33Z</time>
      </trkpt>
      <trkpt lat="44.9949" lon="4.50695">
        <ele>549</ele>
        <time>2015-11-30T08:52:37Z</time>
      </trkpt>
      <trkpt lat="44.99492" lon="4.50682">
        <ele>551</ele>
        <time>2015-11-30T08:52:42Z</time>
      </trkpt>
      <trkpt lat="44.99494" lon="4.5067">
        <ele>553</ele>
        <time>2015-11-30T08:52:46Z</time>
      </trkpt>
      <trkpt lat="44.99493" lon="4.5066">
        <ele>555</ele>
        <time>2015-11-30T08:52:51Z</time>
      </trkpt>
      <trkpt lat="44.99491" lon="4.5065">
        <ele>556</ele>
        <time>2015-11-30T08:52:55Z</time>
      </trkpt>
      <trkpt lat="44.99493" lon="4.50636">
        <ele>557</ele>
        <time>2015-11-30T08:53:00Z</time>
      </trkpt>
      <trkpt lat="44.99495" lon="4.50623">
        <ele>559</ele>
        <time>2015-11-30T08:53:05Z</time>
      </trkpt>
      <trkpt lat="44.99495" lon="4.50616">
        <ele>561</ele>
        <time>2015-11-30T08:53:08Z</time>
      </trkpt>
      <trkpt lat="44.99497" lon="4.50603">
        <ele>562</ele>
        <time>2015-11-30T08:53:13Z</time>
      </trkpt>
      <trkpt lat="44.99496" lon="4.50588">
        <ele>562</ele>
        <time>2015-11-30T08:53:18Z</time>
      </trkpt>
      <trkpt lat="44.99496" lon="4.50576">
        <ele>562</ele>
        <time>2015-11-30T08:53:22Z</time>
      </trkpt>
      <trkpt lat="44.99489" lon="4.50566">
        <ele>562</ele>
        <time>2015-11-30T08:53:26Z</time>
      </trkpt>
      <trkpt lat="44.99487" lon="4.50556">
        <ele>563</ele>
        <time>2015-11-30T08:53:30Z</time>
      </trkpt>
      <trkpt lat="44.99488" lon="4.50547">
        <ele>564</ele>
        <time>2015-11-30T08:53:34Z</time>
      </trkpt>
      <trkpt lat="44.99489" lon="4.50539">
        <ele>565</ele>
        <time>2015-11-30T08:53:37Z</time>
      </trkpt>
      <trkpt lat="44.99491" lon="4.50526">
        <ele>566</ele>
        <time>2015-11-30T08:53:42Z</time>
      </trkpt>
      <trkpt lat="44.99493" lon="4.50516">
        <ele>567</ele>
        <time>2015-11-30T08:53:46Z</time>
      </trkpt>
      <trkpt lat="44.99497" lon="4.5051">
        <ele>567</ele>
        <time>2015-11-30T08:53:50Z</time>
      </trkpt>
      <trkpt lat="44.99501" lon="4.50503">
        <ele>568</ele>
        <time>2015-11-30T08:53:54Z</time>
      </trkpt>
      <trkpt lat="44.99508" lon="4.5049">
        <ele>569</ele>
        <time>2015-11-30T08:53:59Z</time>
      </trkpt>
      <trkpt lat="44.99511" lon="4.50484">
        <ele>570</ele>
        <time>2015-11-30T08:54:02Z</time>
      </trkpt>
      <trkpt lat="44.99516" lon="4.50475">
        <ele>571</ele>
        <time>2015-11-30T08:54:06Z</time>
      </trkpt>
      <trkpt lat="44.99521" lon="4.50466">
        <ele>572</ele>
        <time>2015-11-30T08:54:10Z</time>
      </trkpt>
      <trkpt lat="44.99526" lon="4.50455">
        <ele>574</ele>
        <time>2015-11-30T08:54:17Z</time>
      </trkpt>
      <trkpt lat="44.99527" lon="4.50445">
        <ele>575</ele>
        <time>2015-11-30T08:54:22Z</time>
      </trkpt>
      <trkpt lat="44.99531" lon="4.50435">
        <ele>576</ele>
        <time>2015-11-30T08:54:28Z</time>
      </trkpt>
      <trkpt lat="44.99535" lon="4.50425">
        <ele>578</ele>
        <time>2015-11-30T08:54:34Z</time>
      </trkpt>
      <trkpt lat="44.99535" lon="4.50414">
        <ele>579</ele>
        <time>2015-11-30T08:54:40Z</time>
      </trkpt>
      <trkpt lat="44.99536" lon="4.50405">
        <ele>579</ele>
        <time>2015-11-30T08:54:45Z</time>
      </trkpt>
      <trkpt lat="44.99537" lon="4.50396">
        <ele>580</ele>
        <time>2015-11-30T08:54:50Z</time>
      </trkpt>
      <trkpt lat="44.99538" lon="4.50385">
        <ele>580</ele>
        <time>2015-11-30T08:54:56Z</time>
      </trkpt>
      <trkpt lat="44.99538" lon="4.50375">
        <ele>580</ele>
        <time>2015-11-30T08:55:01Z</time>
      </trkpt>
      <trkpt lat="44.99539" lon="4.50364">
        <ele>581</ele>
        <time>2015-11-30T08:55:06Z</time>
      </trkpt>
      <trkpt lat="44.99538" lon="4.50353">
        <ele>581</ele>
        <time>2015-11-30T08:55:11Z</time>
      </trkpt>
      <trkpt lat="44.99538" lon="4.50341">
        <ele>581</ele>
        <time>2015-11-30T08:55:15Z</time>
      </trkpt>
      <trkpt lat="44.9954" lon="4.50334">
        <ele>581</ele>
        <time>2015-11-30T08:55:18Z</time>
      </trkpt>
      <trkpt lat="44.99543" lon="4.50324">
        <ele>581</ele>
        <time>2015-11-30T08:55:22Z</time>
      </trkpt>
      <trkpt lat="44.99549" lon="4.50313">
        <ele>581</ele>
        <time>2015-11-30T08:55:26Z</time>
      </trkpt>
      <trkpt lat="44.99554" lon="4.50306">
        <ele>581</ele>
        <time>2015-11-30T08:55:29Z</time>
      </trkpt>
      <trkpt lat="44.99561" lon="4.50296">
        <ele>581</ele>
        <time>2015-11-30T08:55:34Z</time>
      </trkpt>
      <trkpt lat="44.99565" lon="4.50284">
        <ele>581</ele>
        <time>2015-11-30T08:55:39Z</time>
      </trkpt>
      <trkpt lat="44.99568" lon="4.50276">
        <ele>581</ele>
        <time>2015-11-30T08:55:42Z</time>
      </trkpt>
      <trkpt lat="44.99573" lon="4.50266">
        <ele>580</ele>
        <time>2015-11-30T08:55:46Z</time>
      </trkpt>
      <trkpt lat="44.99574" lon="4.50246">
        <ele>578</ele>
        <time>2015-11-30T08:55:56Z</time>
      </trkpt>
      <trkpt lat="44.9958" lon="4.50224">
        <ele>576</ele>
        <time>2015-11-30T08:56:00Z</time>
      </trkpt>
      <trkpt lat="44.9958" lon="4.50214">
        <ele>576</ele>
        <time>2015-11-30T08:56:04Z</time>
      </trkpt>
      <trkpt lat="44.99582" lon="4.50205">
        <ele>575</ele>
        <time>2015-11-30T08:56:08Z</time>
      </trkpt>
      <trkpt lat="44.99585" lon="4.5019">
        <ele>574</ele>
        <time>2015-11-30T08:56:12Z</time>
      </trkpt>
      <trkpt lat="44.99585" lon="4.50179">
        <ele>574</ele>
        <time>2015-11-30T08:56:16Z</time>
      </trkpt>
      <trkpt lat="44.99587" lon="4.5017">
        <ele>573</ele>
        <time>2015-11-30T08:56:19Z</time>
      </trkpt>
      <trkpt lat="44.99588" lon="4.50153">
        <ele>573</ele>
        <time>2015-11-30T08:56:24Z</time>
      </trkpt>
      <trkpt lat="44.99588" lon="4.50144">
        <ele>573</ele>
        <time>2015-11-30T08:56:27Z</time>
      </trkpt>
      <trkpt lat="44.99589" lon="4.5013">
        <ele>572</ele>
        <time>2015-11-30T08:56:32Z</time>
      </trkpt>
      <trkpt lat="44.99587" lon="4.50116">
        <ele>572</ele>
        <time>2015-11-30T08:56:36Z</time>
      </trkpt>
      <trkpt lat="44.99589" lon="4.50106">
        <ele>571</ele>
        <time>2015-11-30T08:56:40Z</time>
      </trkpt>
      <trkpt lat="44.9959" lon="4.50092">
        <ele>571</ele>
        <time>2015-11-30T08:56:44Z</time>
      </trkpt>
      <trkpt lat="44.99591" lon="4.50079">
        <ele>570</ele>
        <time>2015-11-30T08:56:48Z</time>
      </trkpt>
      <trkpt lat="44.9959" lon="4.50067">
        <ele>570</ele>
        <time>2015-11-30T08:56:52Z</time>
      </trkpt>
      <trkpt lat="44.99588" lon="4.50046">
        <ele>570</ele>
        <time>2015-11-30T08:56:57Z</time>
      </trkpt>
      <trkpt lat="44.99588" lon="4.50041">
        <ele>570</ele>
        <time>2015-11-30T08:56:59Z</time>
      </trkpt>
      <trkpt lat="44.9959" lon="4.50031">
        <ele>569</ele>
        <time>2015-11-30T08:57:05Z</time>
      </trkpt>
      <trkpt lat="44.99589" lon="4.50005">
        <ele>568</ele>
        <time>2015-11-30T08:57:09Z</time>
      </trkpt>
      <trkpt lat="44.99589" lon="4.5">
        <ele>567</ele>
        <time>2015-11-30T08:57:15Z</time>
      </trkpt>
      <trkpt lat="44.99591" lon="4.4998">
        <ele>567</ele>
        <time>2015-11-30T08:57:20Z</time>
      </trkpt>
      <trkpt lat="44.99591" lon="4.49966">
        <ele>566</ele>
        <time>2015-11-30T08:57:21Z</time>
      </trkpt>
      <trkpt lat="44.99592" lon="4.49953">
        <ele>566</ele>
        <time>2015-11-30T08:57:26Z</time>
      </trkpt>
      <trkpt lat="44.99593" lon="4.49939">
        <ele>567</ele>
        <time>2015-11-30T08:57:30Z</time>
      </trkpt>
      <trkpt lat="44.99594" lon="4.49927">
        <ele>567</ele>
        <time>2015-11-30T08:57:37Z</time>
      </trkpt>
      <trkpt lat="44.99588" lon="4.49898">
        <ele>571</ele>
        <time>2015-11-30T08:57:41Z</time>
      </trkpt>
      <trkpt lat="44.99587" lon="4.49892">
        <ele>572</ele>
        <time>2015-11-30T08:57:57Z</time>
      </trkpt>
      <trkpt lat="44.99597" lon="4.49885">
        <ele>571</ele>
        <time>2015-11-30T08:58:00Z</time>
      </trkpt>
      <trkpt lat="44.99592" lon="4.49886">
        <ele>574</ele>
        <time>2015-11-30T09:01:18Z</time>
      </trkpt>
      <trkpt lat="44.99602" lon="4.49891">
        <ele>579</ele>
        <time>2015-11-30T09:01:23Z</time>
      </trkpt>
      <trkpt lat="44.99598" lon="4.4988">
        <ele>584</ele>
        <time>2015-11-30T09:02:52Z</time>
      </trkpt>
      <trkpt lat="44.99596" lon="4.49868">
        <ele>583</ele>
        <time>2015-11-30T09:02:57Z</time>
      </trkpt>
      <trkpt lat="44.99598" lon="4.49857">
        <ele>582</ele>
        <time>2015-11-30T09:03:02Z</time>
      </trkpt>
      <trkpt lat="44.99599" lon="4.49846">
        <ele>582</ele>
        <time>2015-11-30T09:03:07Z</time>
      </trkpt>
      <trkpt lat="44.99602" lon="4.49836">
        <ele>581</ele>
        <time>2015-11-30T09:03:12Z</time>
      </trkpt>
      <trkpt lat="44.99603" lon="4.49824">
        <ele>581</ele>
        <time>2015-11-30T09:03:21Z</time>
      </trkpt>
      <trkpt lat="44.99602" lon="4.4982">
        <ele>580</ele>
        <time>2015-11-30T09:03:30Z</time>
      </trkpt>
      <trkpt lat="44.99604" lon="4.49799">
        <ele>579</ele>
        <time>2015-11-30T09:03:34Z</time>
      </trkpt>
      <trkpt lat="44.99606" lon="4.49791">
        <ele>580</ele>
        <time>2015-11-30T09:03:54Z</time>
      </trkpt>
      <trkpt lat="44.99605" lon="4.49779">
        <ele>580</ele>
        <time>2015-11-30T09:03:58Z</time>
      </trkpt>
      <trkpt lat="44.99604" lon="4.49765">
        <ele>580</ele>
        <time>2015-11-30T09:04:02Z</time>
      </trkpt>
      <trkpt lat="44.996" lon="4.49756">
        <ele>580</ele>
        <time>2015-11-30T09:04:06Z</time>
      </trkpt>
      <trkpt lat="44.99597" lon="4.49746">
        <ele>579</ele>
        <time>2015-11-30T09:04:11Z</time>
      </trkpt>
      <trkpt lat="44.99596" lon="4.49733">
        <ele>579</ele>
        <time>2015-11-30T09:04:15Z</time>
      </trkpt>
      <trkpt lat="44.99599" lon="4.49718">
        <ele>578</ele>
        <time>2015-11-30T09:04:24Z</time>
      </trkpt>
      <trkpt lat="44.99604" lon="4.4971">
        <ele>577</ele>
        <time>2015-11-30T09:04:31Z</time>
      </trkpt>
      <trkpt lat="44.99607" lon="4.49702">
        <ele>576</ele>
        <time>2015-11-30T09:04:36Z</time>
      </trkpt>
      <trkpt lat="44.9961" lon="4.4969">
        <ele>575</ele>
        <time>2015-11-30T09:04:41Z</time>
      </trkpt>
      <trkpt lat="44.99612" lon="4.49676">
        <ele>574</ele>
        <time>2015-11-30T09:04:46Z</time>
      </trkpt>
      <trkpt lat="44.99618" lon="4.49659">
        <ele>572</ele>
        <time>2015-11-30T09:04:53Z</time>
      </trkpt>
      <trkpt lat="44.99621" lon="4.49649">
        <ele>571</ele>
        <time>2015-11-30T09:04:58Z</time>
      </trkpt>
      <trkpt lat="44.99623" lon="4.49646">
        <ele>570</ele>
        <time>2015-11-30T09:05:00Z</time>
      </trkpt>
      <trkpt lat="44.99624" lon="4.49627">
        <ele>571</ele>
        <time>2015-11-30T09:05:05Z</time>
      </trkpt>
      <trkpt lat="44.99628" lon="4.49618">
        <ele>570</ele>
        <time>2015-11-30T09:05:10Z</time>
      </trkpt>
      <trkpt lat="44.99633" lon="4.4961">
        <ele>569</ele>
        <time>2015-11-30T09:05:17Z</time>
      </trkpt>
      <trkpt lat="44.99636" lon="4.49606">
        <ele>569</ele>
        <time>2015-11-30T09:05:21Z</time>
      </trkpt>
      <trkpt lat="44.99644" lon="4.49599">
        <ele>569</ele>
        <time>2015-11-30T09:05:26Z</time>
      </trkpt>
      <trkpt lat="44.99651" lon="4.49592">
        <ele>568</ele>
        <time>2015-11-30T09:05:33Z</time>
      </trkpt>
      <trkpt lat="44.99656" lon="4.49584">
        <ele>567</ele>
        <time>2015-11-30T09:05:38Z</time>
      </trkpt>
      <trkpt lat="44.99663" lon="4.49578">
        <ele>566</ele>
        <time>2015-11-30T09:05:42Z</time>
      </trkpt>
      <trkpt lat="44.99666" lon="4.49569">
        <ele>565</ele>
        <time>2015-11-30T09:05:46Z</time>
      </trkpt>
      <trkpt lat="44.99673" lon="4.49563">
        <ele>565</ele>
        <time>2015-11-30T09:05:50Z</time>
      </trkpt>
      <trkpt lat="44.9968" lon="4.49551">
        <ele>564</ele>
        <time>2015-11-30T09:05:55Z</time>
      </trkpt>
      <trkpt lat="44.99683" lon="4.4954">
        <ele>563</ele>
        <time>2015-11-30T09:06:01Z</time>
      </trkpt>
      <trkpt lat="44.99689" lon="4.49535">
        <ele>562</ele>
        <time>2015-11-30T09:06:05Z</time>
      </trkpt>
      <trkpt lat="44.99689" lon="4.49522">
        <ele>562</ele>
        <time>2015-11-30T09:06:10Z</time>
      </trkpt>
      <trkpt lat="44.99687" lon="4.49509">
        <ele>561</ele>
        <time>2015-11-30T09:06:15Z</time>
      </trkpt>
      <trkpt lat="44.99687" lon="4.49499">
        <ele>560</ele>
        <time>2015-11-30T09:06:21Z</time>
      </trkpt>
      <trkpt lat="44.99684" lon="4.49487">
        <ele>559</ele>
        <time>2015-11-30T09:06:28Z</time>
      </trkpt>
      <trkpt lat="44.99681" lon="4.49476">
        <ele>558</ele>
        <time>2015-11-30T09:06:34Z</time>
      </trkpt>
      <trkpt lat="44.9968" lon="4.49464">
        <ele>558</ele>
        <time>2015-11-30T09:06:39Z</time>
      </trkpt>
      <trkpt lat="44.99679" lon="4.49452">
        <ele>557</ele>
        <time>2015-11-30T09:06:44Z</time>
      </trkpt>
      <trkpt lat="44.99677" lon="4.49439">
        <ele>557</ele>
        <time>2015-11-30T09:06:48Z</time>
      </trkpt>
      <trkpt lat="44.99675" lon="4.49432">
        <ele>557</ele>
        <time>2015-11-30T09:06:51Z</time>
      </trkpt>
      <trkpt lat="44.99671" lon="4.49416">
        <ele>556</ele>
        <time>2015-11-30T09:06:56Z</time>
      </trkpt>
      <trkpt lat="44.99672" lon="4.49406">
        <ele>556</ele>
        <time>2015-11-30T09:07:00Z</time>
      </trkpt>
      <trkpt lat="44.99674" lon="4.49393">
        <ele>556</ele>
        <time>2015-11-30T09:07:04Z</time>
      </trkpt>
      <trkpt lat="44.99677" lon="4.49381">
        <ele>556</ele>
        <time>2015-11-30T09:07:09Z</time>
      </trkpt>
      <trkpt lat="44.99679" lon="4.49373">
        <ele>556</ele>
        <time>2015-11-30T09:07:12Z</time>
      </trkpt>
      <trkpt lat="44.99681" lon="4.49362">
        <ele>556</ele>
        <time>2015-11-30T09:07:16Z</time>
      </trkpt>
      <trkpt lat="44.99682" lon="4.49352">
        <ele>556</ele>
        <time>2015-11-30T09:07:20Z</time>
      </trkpt>
      <trkpt lat="44.99687" lon="4.49343">
        <ele>556</ele>
        <time>2015-11-30T09:07:25Z</time>
      </trkpt>
      <trkpt lat="44.99691" lon="4.49331">
        <ele>557</ele>
        <time>2015-11-30T09:07:30Z</time>
      </trkpt>
      <trkpt lat="44.99693" lon="4.49322">
        <ele>557</ele>
        <time>2015-11-30T09:07:33Z</time>
      </trkpt>
      <trkpt lat="44.99697" lon="4.49308">
        <ele>558</ele>
        <time>2015-11-30T09:07:37Z</time>
      </trkpt>
      <trkpt lat="44.99701" lon="4.49296">
        <ele>558</ele>
        <time>2015-11-30T09:07:41Z</time>
      </trkpt>
      <trkpt lat="44.99704" lon="4.49282">
        <ele>558</ele>
        <time>2015-11-30T09:07:45Z</time>
      </trkpt>
      <trkpt lat="44.99706" lon="4.49266">
        <ele>559</ele>
        <time>2015-11-30T09:07:50Z</time>
      </trkpt>
      <trkpt lat="44.99708" lon="4.49254">
        <ele>560</ele>
        <time>2015-11-30T09:07:54Z</time>
      </trkpt>
      <trkpt lat="44.99711" lon="4.4924">
        <ele>561</ele>
        <time>2015-11-30T09:07:58Z</time>
      </trkpt>
      <trkpt lat="44.99712" lon="4.49225">
        <ele>561</ele>
        <time>2015-11-30T09:08:02Z</time>
      </trkpt>
      <trkpt lat="44.99713" lon="4.49213">
        <ele>560</ele>
        <time>2015-11-30T09:08:05Z</time>
      </trkpt>
      <trkpt lat="44.99715" lon="4.49195">
        <ele>561</ele>
        <time>2015-11-30T09:08:10Z</time>
      </trkpt>
      <trkpt lat="44.99716" lon="4.4918">
        <ele>560</ele>
        <time>2015-11-30T09:08:14Z</time>
      </trkpt>
      <trkpt lat="44.99717" lon="4.49169">
        <ele>560</ele>
        <time>2015-11-30T09:08:17Z</time>
      </trkpt>
      <trkpt lat="44.99718" lon="4.49155">
        <ele>561</ele>
        <time>2015-11-30T09:08:21Z</time>
      </trkpt>
      <trkpt lat="44.99718" lon="4.49135">
        <ele>560</ele>
        <time>2015-11-30T09:08:26Z</time>
      </trkpt>
      <trkpt lat="44.99717" lon="4.49119">
        <ele>560</ele>
        <time>2015-11-30T09:08:30Z</time>
      </trkpt>
      <trkpt lat="44.99715" lon="4.49104">
        <ele>559</ele>
        <time>2015-11-30T09:08:34Z</time>
      </trkpt>
      <trkpt lat="44.99713" lon="4.49088">
        <ele>557</ele>
        <time>2015-11-30T09:08:38Z</time>
      </trkpt>
      <trkpt lat="44.9971" lon="4.49075">
        <ele>556</ele>
        <time>2015-11-30T09:08:42Z</time>
      </trkpt>
      <trkpt lat="44.99706" lon="4.49048">
        <ele>554</ele>
        <time>2015-11-30T09:08:47Z</time>
      </trkpt>
      <trkpt lat="44.99704" lon="4.49031">
        <ele>555</ele>
        <time>2015-11-30T09:08:52Z</time>
      </trkpt>
      <trkpt lat="44.99702" lon="4.49015">
        <ele>555</ele>
        <time>2015-11-30T09:08:57Z</time>
      </trkpt>
      <trkpt lat="44.99698" lon="4.48993">
        <ele>555</ele>
        <time>2015-11-30T09:09:02Z</time>
      </trkpt>
      <trkpt lat="44.99696" lon="4.48971">
        <ele>554</ele>
        <time>2015-11-30T09:09:06Z</time>
      </trkpt>
      <trkpt lat="44.99694" lon="4.48947">
        <ele>553</ele>
        <time>2015-11-30T09:09:11Z</time>
      </trkpt>
      <trkpt lat="44.99691" lon="4.48933">
        <ele>553</ele>
        <time>2015-11-30T09:09:15Z</time>
      </trkpt>
      <trkpt lat="44.9969" lon="4.48918">
        <ele>553</ele>
        <time>2015-11-30T09:09:20Z</time>
      </trkpt>
      <trkpt lat="44.99689" lon="4.48906">
        <ele>554</ele>
        <time>2015-11-30T09:09:24Z</time>
      </trkpt>
      <trkpt lat="44.99687" lon="4.48896">
        <ele>554</ele>
        <time>2015-11-30T09:09:27Z</time>
      </trkpt>
      <trkpt lat="44.99684" lon="4.48879">
        <ele>554</ele>
        <time>2015-11-30T09:09:32Z</time>
      </trkpt>
      <trkpt lat="44.99683" lon="4.48867">
        <ele>556</ele>
        <time>2015-11-30T09:09:36Z</time>
      </trkpt>
      <trkpt lat="44.99679" lon="4.48854">
        <ele>555</ele>
        <time>2015-11-30T09:09:41Z</time>
      </trkpt>
      <trkpt lat="44.99675" lon="4.48844">
        <ele>554</ele>
        <time>2015-11-30T09:09:45Z</time>
      </trkpt>
      <trkpt lat="44.99673" lon="4.48834">
        <ele>555</ele>
        <time>2015-11-30T09:09:50Z</time>
      </trkpt>
      <trkpt lat="44.99669" lon="4.48821">
        <ele>555</ele>
        <time>2015-11-30T09:09:54Z</time>
      </trkpt>
      <trkpt lat="44.99666" lon="4.48808">
        <ele>556</ele>
        <time>2015-11-30T09:09:58Z</time>
      </trkpt>
      <trkpt lat="44.99663" lon="4.48792">
        <ele>559</ele>
        <time>2015-11-30T09:10:03Z</time>
      </trkpt>
      <trkpt lat="44.99662" lon="4.48778">
        <ele>560</ele>
        <time>2015-11-30T09:10:07Z</time>
      </trkpt>
      <trkpt lat="44.99662" lon="4.48765">
        <ele>561</ele>
        <time>2015-11-30T09:10:11Z</time>
      </trkpt>
      <trkpt lat="44.99663" lon="4.48753">
        <ele>561</ele>
        <time>2015-11-30T09:10:15Z</time>
      </trkpt>
      <trkpt lat="44.99664" lon="4.48743">
        <ele>562</ele>
        <time>2015-11-30T09:10:18Z</time>
      </trkpt>
      <trkpt lat="44.99665" lon="4.48729">
        <ele>562</ele>
        <time>2015-11-30T09:10:22Z</time>
      </trkpt>
      <trkpt lat="44.99666" lon="4.48714">
        <ele>562</ele>
        <time>2015-11-30T09:10:26Z</time>
      </trkpt>
      <trkpt lat="44.9967" lon="4.48703">
        <ele>563</ele>
        <time>2015-11-30T09:10:30Z</time>
      </trkpt>
      <trkpt lat="44.99674" lon="4.48689">
        <ele>563</ele>
        <time>2015-11-30T09:10:34Z</time>
      </trkpt>
      <trkpt lat="44.99678" lon="4.4867">
        <ele>564</ele>
        <time>2015-11-30T09:10:38Z</time>
      </trkpt>
      <trkpt lat="44.99682" lon="4.48655">
        <ele>565</ele>
        <time>2015-11-30T09:10:42Z</time>
      </trkpt>
      <trkpt lat="44.99687" lon="4.48638">
        <ele>565</ele>
        <time>2015-11-30T09:10:46Z</time>
      </trkpt>
      <trkpt lat="44.99694" lon="4.48623">
        <ele>567</ele>
        <time>2015-11-30T09:10:50Z</time>
      </trkpt>
      <trkpt lat="44.99699" lon="4.48608">
        <ele>568</ele>
        <time>2015-11-30T09:10:54Z</time>
      </trkpt>
      <trkpt lat="44.99705" lon="4.48595">
        <ele>569</ele>
        <time>2015-11-30T09:10:58Z</time>
      </trkpt>
      <trkpt lat="44.99711" lon="4.48582">
        <ele>569</ele>
        <time>2015-11-30T09:11:02Z</time>
      </trkpt>
      <trkpt lat="44.99716" lon="4.4857">
        <ele>570</ele>
        <time>2015-11-30T09:11:06Z</time>
      </trkpt>
      <trkpt lat="44.99719" lon="4.48556">
        <ele>570</ele>
        <time>2015-11-30T09:11:11Z</time>
      </trkpt>
      <trkpt lat="44.99721" lon="4.48547">
        <ele>571</ele>
        <time>2015-11-30T09:11:14Z</time>
      </trkpt>
      <trkpt lat="44.99718" lon="4.48531">
        <ele>572</ele>
        <time>2015-11-30T09:11:19Z</time>
      </trkpt>
      <trkpt lat="44.99715" lon="4.48524">
        <ele>573</ele>
        <time>2015-11-30T09:11:22Z</time>
      </trkpt>
      <trkpt lat="44.99712" lon="4.48514">
        <ele>574</ele>
        <time>2015-11-30T09:11:26Z</time>
      </trkpt>
      <trkpt lat="44.99704" lon="4.48504">
        <ele>575</ele>
        <time>2015-11-30T09:11:30Z</time>
      </trkpt>
      <trkpt lat="44.99698" lon="4.48498">
        <ele>577</ele>
        <time>2015-11-30T09:11:35Z</time>
      </trkpt>
      <trkpt lat="44.99688" lon="4.48476">
        <ele>586</ele>
        <time>2015-11-30T09:11:39Z</time>
      </trkpt>
      <trkpt lat="44.99684" lon="4.4847">
        <ele>588</ele>
        <time>2015-11-30T09:11:42Z</time>
      </trkpt>
      <trkpt lat="44.99679" lon="4.48455">
        <ele>594</ele>
        <time>2015-11-30T09:11:46Z</time>
      </trkpt>
      <trkpt lat="44.99673" lon="4.48448">
        <ele>597</ele>
        <time>2015-11-30T09:11:50Z</time>
      </trkpt>
      <trkpt lat="44.99666" lon="4.48442">
        <ele>600</ele>
        <time>2015-11-30T09:11:54Z</time>
      </trkpt>
      <trkpt lat="44.99657" lon="4.48429">
        <ele>606</ele>
        <time>2015-11-30T09:11:59Z</time>
      </trkpt>
      <trkpt lat="44.9965" lon="4.48426">
        <ele>608</ele>
        <time>2015-11-30T09:12:02Z</time>
      </trkpt>
      <trkpt lat="44.99643" lon="4.48426">
        <ele>610</ele>
        <time>2015-11-30T09:12:06Z</time>
      </trkpt>
      <trkpt lat="44.99634" lon="4.48427">
        <ele>612</ele>
        <time>2015-11-30T09:12:12Z</time>
      </trkpt>
      <trkpt lat="44.99627" lon="4.48425">
        <ele>614</ele>
        <time>2015-11-30T09:12:17Z</time>
      </trkpt>
      <trkpt lat="44.9962" lon="4.48422">
        <ele>617</ele>
        <time>2015-11-30T09:12:21Z</time>
      </trkpt>
      <trkpt lat="44.99612" lon="4.48423">
        <ele>620</ele>
        <time>2015-11-30T09:12:26Z</time>
      </trkpt>
      <trkpt lat="44.99606" lon="4.48419">
        <ele>622</ele>
        <time>2015-11-30T09:12:31Z</time>
      </trkpt>
      <trkpt lat="44.99599" lon="4.48411">
        <ele>624</ele>
        <time>2015-11-30T09:12:35Z</time>
      </trkpt>
      <trkpt lat="44.99594" lon="4.48406">
        <ele>626</ele>
        <time>2015-11-30T09:12:39Z</time>
      </trkpt>
      <trkpt lat="44.99584" lon="4.48406">
        <ele>633</ele>
        <time>2015-11-30T09:12:43Z</time>
      </trkpt>
      <trkpt lat="44.99576" lon="4.48404">
        <ele>635</ele>
        <time>2015-11-30T09:12:48Z</time>
      </trkpt>
      <trkpt lat="44.9957" lon="4.48401">
        <ele>637</ele>
        <time>2015-11-30T09:12:52Z</time>
      </trkpt>
      <trkpt lat="44.99565" lon="4.48396">
        <ele>641</ele>
        <time>2015-11-30T09:12:57Z</time>
      </trkpt>
      <trkpt lat="44.9956" lon="4.4839">
        <ele>642</ele>
        <time>2015-11-30T09:13:02Z</time>
      </trkpt>
      <trkpt lat="44.99554" lon="4.48382">
        <ele>648</ele>
        <time>2015-11-30T09:13:09Z</time>
      </trkpt>
      <trkpt lat="44.99548" lon="4.48373">
        <ele>654</ele>
        <time>2015-11-30T09:13:19Z</time>
      </trkpt>
      <trkpt lat="44.99543" lon="4.48368">
        <ele>655</ele>
        <time>2015-11-30T09:13:24Z</time>
      </trkpt>
      <trkpt lat="44.99536" lon="4.48359">
        <ele>657</ele>
        <time>2015-11-30T09:13:30Z</time>
      </trkpt>
      <trkpt lat="44.99535" lon="4.4835">
        <ele>659</ele>
        <time>2015-11-30T09:13:38Z</time>
      </trkpt>
      <trkpt lat="44.99542" lon="4.48349">
        <ele>665</ele>
        <time>2015-11-30T09:13:52Z</time>
      </trkpt>
      <trkpt lat="44.99549" lon="4.4835">
        <ele>666</ele>
        <time>2015-11-30T09:13:56Z</time>
      </trkpt>
      <trkpt lat="44.99557" lon="4.48348">
        <ele>667</ele>
        <time>2015-11-30T09:14:00Z</time>
      </trkpt>
      <trkpt lat="44.99565" lon="4.48349">
        <ele>668</ele>
        <time>2015-11-30T09:14:04Z</time>
      </trkpt>
      <trkpt lat="44.99574" lon="4.48347">
        <ele>669</ele>
        <time>2015-11-30T09:14:08Z</time>
      </trkpt>
      <trkpt lat="44.9958" lon="4.48344">
        <ele>669</ele>
        <time>2015-11-30T09:14:12Z</time>
      </trkpt>
      <trkpt lat="44.99587" lon="4.48341">
        <ele>670</ele>
        <time>2015-11-30T09:14:16Z</time>
      </trkpt>
      <trkpt lat="44.99598" lon="4.48337">
        <ele>671</ele>
        <time>2015-11-30T09:14:21Z</time>
      </trkpt>
      <trkpt lat="44.99605" lon="4.48332">
        <ele>672</ele>
        <time>2015-11-30T09:14:26Z</time>
      </trkpt>
      <trkpt lat="44.99611" lon="4.48328">
        <ele>672</ele>
        <time>2015-11-30T09:14:30Z</time>
      </trkpt>
      <trkpt lat="44.99621" lon="4.48324">
        <ele>673</ele>
        <time>2015-11-30T09:14:35Z</time>
      </trkpt>
      <trkpt lat="44.99633" lon="4.48318">
        <ele>674</ele>
        <time>2015-11-30T09:14:40Z</time>
      </trkpt>
      <trkpt lat="44.9964" lon="4.48313">
        <ele>676</ele>
        <time>2015-11-30T09:14:45Z</time>
      </trkpt>
      <trkpt lat="44.99649" lon="4.48309">
        <ele>678</ele>
        <time>2015-11-30T09:14:50Z</time>
      </trkpt>
      <trkpt lat="44.99655" lon="4.48306">
        <ele>679</ele>
        <time>2015-11-30T09:14:54Z</time>
      </trkpt>
      <trkpt lat="44.99653" lon="4.48294">
        <ele>685</ele>
        <time>2015-11-30T09:15:07Z</time>
      </trkpt>
      <trkpt lat="44.99645" lon="4.4829">
        <ele>687</ele>
        <time>2015-11-30T09:15:14Z</time>
      </trkpt>
      <trkpt lat="44.99638" lon="4.48285">
        <ele>688</ele>
        <time>2015-11-30T09:15:20Z</time>
      </trkpt>
      <trkpt lat="44.9963" lon="4.48284">
        <ele>689</ele>
        <time>2015-11-30T09:15:26Z</time>
      </trkpt>
      <trkpt lat="44.99622" lon="4.4828">
        <ele>691</ele>
        <time>2015-11-30T09:15:32Z</time>
      </trkpt>
      <trkpt lat="44.99614" lon="4.48273">
        <ele>692</ele>
        <time>2015-11-30T09:15:38Z</time>
      </trkpt>
      <trkpt lat="44.99609" lon="4.48271">
        <ele>693</ele>
        <time>2015-11-30T09:15:41Z</time>
      </trkpt>
      <trkpt lat="44.99602" lon="4.48266">
        <ele>694</ele>
        <time>2015-11-30T09:15:45Z</time>
      </trkpt>
      <trkpt lat="44.99596" lon="4.48258">
        <ele>696</ele>
        <time>2015-11-30T09:15:50Z</time>
      </trkpt>
      <trkpt lat="44.99592" lon="4.48249">
        <ele>697</ele>
        <time>2015-11-30T09:15:54Z</time>
      </trkpt>
      <trkpt lat="44.99585" lon="4.48241">
        <ele>698</ele>
        <time>2015-11-30T09:15:58Z</time>
      </trkpt>
      <trkpt lat="44.99579" lon="4.48235">
        <ele>699</ele>
        <time>2015-11-30T09:16:02Z</time>
      </trkpt>
      <trkpt lat="44.99572" lon="4.48228">
        <ele>700</ele>
        <time>2015-11-30T09:16:07Z</time>
      </trkpt>
      <trkpt lat="44.99565" lon="4.48217">
        <ele>702</ele>
        <time>2015-11-30T09:16:12Z</time>
      </trkpt>
      <trkpt lat="44.99561" lon="4.48209">
        <ele>702</ele>
        <time>2015-11-30T09:16:15Z</time>
      </trkpt>
      <trkpt lat="44.99555" lon="4.48196">
        <ele>703</ele>
        <time>2015-11-30T09:16:20Z</time>
      </trkpt>
      <trkpt lat="44.99553" lon="4.48188">
        <ele>705</ele>
        <time>2015-11-30T09:16:24Z</time>
      </trkpt>
      <trkpt lat="44.99549" lon="4.48178">
        <ele>706</ele>
        <time>2015-11-30T09:16:28Z</time>
      </trkpt>
      <trkpt lat="44.99544" lon="4.48168">
        <ele>709</ele>
        <time>2015-11-30T09:16:34Z</time>
      </trkpt>
      <trkpt lat="44.99542" lon="4.48156">
        <ele>712</ele>
        <time>2015-11-30T09:16:43Z</time>
      </trkpt>
      <trkpt lat="44.99542" lon="4.48147">
        <ele>713</ele>
        <time>2015-11-30T09:16:50Z</time>
      </trkpt>
      <trkpt lat="44.99542" lon="4.48135">
        <ele>715</ele>
        <time>2015-11-30T09:16:58Z</time>
      </trkpt>
      <trkpt lat="44.99543" lon="4.48124">
        <ele>716</ele>
        <time>2015-11-30T09:17:03Z</time>
      </trkpt>
      <trkpt lat="44.99544" lon="4.48114">
        <ele>718</ele>
        <time>2015-11-30T09:17:08Z</time>
      </trkpt>
      <trkpt lat="44.99548" lon="4.48107">
        <ele>719</ele>
        <time>2015-11-30T09:17:12Z</time>
      </trkpt>
      <trkpt lat="44.99554" lon="4.48099">
        <ele>719</ele>
        <time>2015-11-30T09:17:17Z</time>
      </trkpt>
      <trkpt lat="44.99561" lon="4.48091">
        <ele>720</ele>
        <time>2015-11-30T09:17:22Z</time>
      </trkpt>
      <trkpt lat="44.99567" lon="4.48085">
        <ele>720</ele>
        <time>2015-11-30T09:17:26Z</time>
      </trkpt>
      <trkpt lat="44.99571" lon="4.48075">
        <ele>721</ele>
        <time>2015-11-30T09:17:30Z</time>
      </trkpt>
      <trkpt lat="44.99576" lon="4.48068">
        <ele>721</ele>
        <time>2015-11-30T09:17:34Z</time>
      </trkpt>
      <trkpt lat="44.9958" lon="4.48061">
        <ele>721</ele>
        <time>2015-11-30T09:17:38Z</time>
      </trkpt>
      <trkpt lat="44.99582" lon="4.48052">
        <ele>722</ele>
        <time>2015-11-30T09:17:42Z</time>
      </trkpt>
      <trkpt lat="44.99587" lon="4.48044">
        <ele>723</ele>
        <time>2015-11-30T09:17:46Z</time>
      </trkpt>
      <trkpt lat="44.99593" lon="4.48038">
        <ele>723</ele>
        <time>2015-11-30T09:17:51Z</time>
      </trkpt>
      <trkpt lat="44.99597" lon="4.48028">
        <ele>725</ele>
        <time>2015-11-30T09:17:59Z</time>
      </trkpt>
      <trkpt lat="44.99603" lon="4.4802">
        <ele>726</ele>
        <time>2015-11-30T09:18:05Z</time>
      </trkpt>
      <trkpt lat="44.99606" lon="4.4801">
        <ele>727</ele>
        <time>2015-11-30T09:18:10Z</time>
      </trkpt>
      <trkpt lat="44.99612" lon="4.48002">
        <ele>729</ele>
        <time>2015-11-30T09:18:20Z</time>
      </trkpt>
      <trkpt lat="44.99616" lon="4.47996">
        <ele>729</ele>
        <time>2015-11-30T09:18:24Z</time>
      </trkpt>
      <trkpt lat="44.99618" lon="4.47988">
        <ele>730</ele>
        <time>2015-11-30T09:18:28Z</time>
      </trkpt>
      <trkpt lat="44.99622" lon="4.47981">
        <ele>731</ele>
        <time>2015-11-30T09:18:32Z</time>
      </trkpt>
      <trkpt lat="44.99628" lon="4.47976">
        <ele>731</ele>
        <time>2015-11-30T09:18:36Z</time>
      </trkpt>
      <trkpt lat="44.99631" lon="4.47969">
        <ele>731</ele>
        <time>2015-11-30T09:18:40Z</time>
      </trkpt>
      <trkpt lat="44.99636" lon="4.4796">
        <ele>732</ele>
        <time>2015-11-30T09:18:46Z</time>
      </trkpt>
      <trkpt lat="44.99636" lon="4.4795">
        <ele>732</ele>
        <time>2015-11-30T09:18:50Z</time>
      </trkpt>
      <trkpt lat="44.99635" lon="4.47938">
        <ele>733</ele>
        <time>2015-11-30T09:18:54Z</time>
      </trkpt>
      <trkpt lat="44.99637" lon="4.47928">
        <ele>734</ele>
        <time>2015-11-30T09:18:58Z</time>
      </trkpt>
      <trkpt lat="44.99637" lon="4.47919">
        <ele>735</ele>
        <time>2015-11-30T09:19:02Z</time>
      </trkpt>
      <trkpt lat="44.9964" lon="4.47906">
        <ele>736</ele>
        <time>2015-11-30T09:19:07Z</time>
      </trkpt>
      <trkpt lat="44.99641" lon="4.47897">
        <ele>737</ele>
        <time>2015-11-30T09:19:11Z</time>
      </trkpt>
      <trkpt lat="44.99643" lon="4.47884">
        <ele>737</ele>
        <time>2015-11-30T09:19:16Z</time>
      </trkpt>
      <trkpt lat="44.9964" lon="4.47872">
        <ele>739</ele>
        <time>2015-11-30T09:19:23Z</time>
      </trkpt>
      <trkpt lat="44.99638" lon="4.47861">
        <ele>740</ele>
        <time>2015-11-30T09:19:32Z</time>
      </trkpt>
      <trkpt lat="44.9964" lon="4.47851">
        <ele>740</ele>
        <time>2015-11-30T09:19:38Z</time>
      </trkpt>
      <trkpt lat="44.99638" lon="4.47843">
        <ele>740</ele>
        <time>2015-11-30T09:19:43Z</time>
      </trkpt>
      <trkpt lat="44.99634" lon="4.47834">
        <ele>741</ele>
        <time>2015-11-30T09:19:47Z</time>
      </trkpt>
      <trkpt lat="44.99633" lon="4.47822">
        <ele>742</ele>
        <time>2015-11-30T09:19:55Z</time>
      </trkpt>
      <trkpt lat="44.99632" lon="4.47812">
        <ele>743</ele>
        <time>2015-11-30T09:20:02Z</time>
      </trkpt>
      <trkpt lat="44.99633" lon="4.47802">
        <ele>743</ele>
        <time>2015-11-30T09:20:07Z</time>
      </trkpt>
      <trkpt lat="44.99632" lon="4.4779">
        <ele>743</ele>
        <time>2015-11-30T09:20:14Z</time>
      </trkpt>
      <trkpt lat="44.99632" lon="4.47781">
        <ele>744</ele>
        <time>2015-11-30T09:20:18Z</time>
      </trkpt>
      <trkpt lat="44.99632" lon="4.47769">
        <ele>745</ele>
        <time>2015-11-30T09:20:25Z</time>
      </trkpt>
      <trkpt lat="44.99633" lon="4.47758">
        <ele>745</ele>
        <time>2015-11-30T09:20:28Z</time>
      </trkpt>
      <trkpt lat="44.9963" lon="4.47749">
        <ele>744</ele>
        <time>2015-11-30T09:20:32Z</time>
      </trkpt>
      <trkpt lat="44.99625" lon="4.47734">
        <ele>743</ele>
        <time>2015-11-30T09:20:36Z</time>
      </trkpt>
      <trkpt lat="44.99623" lon="4.4772">
        <ele>745</ele>
        <time>2015-11-30T09:20:40Z</time>
      </trkpt>
      <trkpt lat="44.9962" lon="4.47707">
        <ele>746</ele>
        <time>2015-11-30T09:20:45Z</time>
      </trkpt>
      <trkpt lat="44.99616" lon="4.47696">
        <ele>747</ele>
        <time>2015-11-30T09:20:50Z</time>
      </trkpt>
      <trkpt lat="44.99611" lon="4.47687">
        <ele>749</ele>
        <time>2015-11-30T09:20:54Z</time>
      </trkpt>
      <trkpt lat="44.99605" lon="4.47676">
        <ele>750</ele>
        <time>2015-11-30T09:20:59Z</time>
      </trkpt>
      <trkpt lat="44.99598" lon="4.47665">
        <ele>752</ele>
        <time>2015-11-30T09:21:03Z</time>
      </trkpt>
      <trkpt lat="44.99594" lon="4.47661">
        <ele>752</ele>
        <time>2015-11-30T09:21:05Z</time>
      </trkpt>
      <trkpt lat="44.99577" lon="4.47636">
        <ele>755</ele>
        <time>2015-11-30T09:21:17Z</time>
      </trkpt>
      <trkpt lat="44.99573" lon="4.47633">
        <ele>755</ele>
        <time>2015-11-30T09:21:19Z</time>
      </trkpt>
      <trkpt lat="44.99563" lon="4.47626">
        <ele>756</ele>
        <time>2015-11-30T09:21:26Z</time>
      </trkpt>
      <trkpt lat="44.99557" lon="4.47619">
        <ele>757</ele>
        <time>2015-11-30T09:21:32Z</time>
      </trkpt>
      <trkpt lat="44.99555" lon="4.47616">
        <ele>757</ele>
        <time>2015-11-30T09:21:40Z</time>
      </trkpt>
      <trkpt lat="44.99542" lon="4.47602">
        <ele>757</ele>
        <time>2015-11-30T09:21:45Z</time>
      </trkpt>
      <trkpt lat="44.99534" lon="4.47598">
        <ele>757</ele>
        <time>2015-11-30T09:21:51Z</time>
      </trkpt>
      <trkpt lat="44.99527" lon="4.47595">
        <ele>757</ele>
        <time>2015-11-30T09:21:56Z</time>
      </trkpt>
      <trkpt lat="44.99519" lon="4.47594">
        <ele>758</ele>
        <time>2015-11-30T09:22:03Z</time>
      </trkpt>
      <trkpt lat="44.99511" lon="4.47595">
        <ele>758</ele>
        <time>2015-11-30T09:22:09Z</time>
      </trkpt>
      <trkpt lat="44.995" lon="4.47596">
        <ele>759</ele>
        <time>2015-11-30T09:22:14Z</time>
      </trkpt>
      <trkpt lat="44.99493" lon="4.47592">
        <ele>759</ele>
        <time>2015-11-30T09:22:18Z</time>
      </trkpt>
      <trkpt lat="44.99485" lon="4.47591">
        <ele>760</ele>
        <time>2015-11-30T09:22:23Z</time>
      </trkpt>
      <trkpt lat="44.99477" lon="4.47587">
        <ele>761</ele>
        <time>2015-11-30T09:22:28Z</time>
      </trkpt>
      <trkpt lat="44.99362" lon="4.47041">
        <ele>744</ele>
        <time>2015-11-30T09:26:12Z</time>
      </trkpt>
      <trkpt lat="44.99362" lon="4.47041">
        <ele>744</ele>
        <time>2015-11-30T09:29:03Z</time>
      </trkpt>
      <trkpt lat="44.99228" lon="4.46835">
        <ele>845</ele>
        <time>2015-11-30T09:29:06Z</time>
      </trkpt>
      <trkpt lat="44.99221" lon="4.46828">
        <ele>855</ele>
        <time>2015-11-30T09:29:27Z</time>
      </trkpt>
      <trkpt lat="44.99217" lon="4.46818">
        <ele>854</ele>
        <time>2015-11-30T09:29:36Z</time>
      </trkpt>
      <trkpt lat="44.99216" lon="4.46817">
        <ele>854</ele>
        <time>2015-11-30T09:30:06Z</time>
      </trkpt>
      <trkpt lat="44.9921" lon="4.46803">
        <ele>845</ele>
        <time>2015-11-30T09:30:10Z</time>
      </trkpt>
      <trkpt lat="44.99204" lon="4.46794">
        <ele>844</ele>
        <time>2015-11-30T09:30:25Z</time>
      </trkpt>
      <trkpt lat="44.992" lon="4.46788">
        <ele>844</ele>
        <time>2015-11-30T09:30:31Z</time>
      </trkpt>
      <trkpt lat="44.99195" lon="4.46778">
        <ele>844</ele>
        <time>2015-11-30T09:30:36Z</time>
      </trkpt>
      <trkpt lat="44.99191" lon="4.46771">
        <ele>843</ele>
        <time>2015-11-30T09:30:40Z</time>
      </trkpt>
      <trkpt lat="44.99191" lon="4.46762">
        <ele>843</ele>
        <time>2015-11-30T09:30:43Z</time>
      </trkpt>
      <trkpt lat="44.99186" lon="4.46755">
        <ele>843</ele>
        <time>2015-11-30T09:30:46Z</time>
      </trkpt>
      <trkpt lat="44.99179" lon="4.46746">
        <ele>843</ele>
        <time>2015-11-30T09:30:50Z</time>
      </trkpt>
      <trkpt lat="44.99172" lon="4.46741">
        <ele>842</ele>
        <time>2015-11-30T09:30:57Z</time>
      </trkpt>
      <trkpt lat="44.99168" lon="4.46734">
        <ele>842</ele>
        <time>2015-11-30T09:31:03Z</time>
      </trkpt>
      <trkpt lat="44.99165" lon="4.46725">
        <ele>842</ele>
        <time>2015-11-30T09:31:07Z</time>
      </trkpt>
      <trkpt lat="44.99163" lon="4.46714">
        <ele>841</ele>
        <time>2015-11-30T09:31:10Z</time>
      </trkpt>
      <trkpt lat="44.99156" lon="4.46702">
        <ele>841</ele>
        <time>2015-11-30T09:31:14Z</time>
      </trkpt>
      <trkpt lat="44.99149" lon="4.46691">
        <ele>841</ele>
        <time>2015-11-30T09:31:19Z</time>
      </trkpt>
      <trkpt lat="44.99143" lon="4.46686">
        <ele>839</ele>
        <time>2015-11-30T09:31:24Z</time>
      </trkpt>
      <trkpt lat="44.99137" lon="4.46681">
        <ele>839</ele>
        <time>2015-11-30T09:31:29Z</time>
      </trkpt>
      <trkpt lat="44.99127" lon="4.46679">
        <ele>839</ele>
        <time>2015-11-30T09:31:34Z</time>
      </trkpt>
      <trkpt lat="44.99122" lon="4.46676">
        <ele>839</ele>
        <time>2015-11-30T09:31:38Z</time>
      </trkpt>
      <trkpt lat="44.99113" lon="4.46677">
        <ele>837</ele>
        <time>2015-11-30T09:31:42Z</time>
      </trkpt>
      <trkpt lat="44.99108" lon="4.46678">
        <ele>836</ele>
        <time>2015-11-30T09:31:45Z</time>
      </trkpt>
      <trkpt lat="44.99101" lon="4.46678">
        <ele>835</ele>
        <time>2015-11-30T09:31:49Z</time>
      </trkpt>
      <trkpt lat="44.99093" lon="4.46675">
        <ele>834</ele>
        <time>2015-11-30T09:31:52Z</time>
      </trkpt>
      <trkpt lat="44.99083" lon="4.46667">
        <ele>833</ele>
        <time>2015-11-30T09:31:55Z</time>
      </trkpt>
      <trkpt lat="44.99075" lon="4.46658">
        <ele>832</ele>
        <time>2015-11-30T09:31:59Z</time>
      </trkpt>
      <trkpt lat="44.99069" lon="4.4665">
        <ele>832</ele>
        <time>2015-11-30T09:32:04Z</time>
      </trkpt>
      <trkpt lat="44.99063" lon="4.4664">
        <ele>832</ele>
        <time>2015-11-30T09:32:08Z</time>
      </trkpt>
      <trkpt lat="44.99058" lon="4.46632">
        <ele>832</ele>
        <time>2015-11-30T09:32:14Z</time>
      </trkpt>
      <trkpt lat="44.99057" lon="4.46618">
        <ele>831</ele>
        <time>2015-11-30T09:32:17Z</time>
      </trkpt>
      <trkpt lat="44.99049" lon="4.46608">
        <ele>831</ele>
        <time>2015-11-30T09:32:21Z</time>
      </trkpt>
      <trkpt lat="44.99044" lon="4.46598">
        <ele>831</ele>
        <time>2015-11-30T09:32:25Z</time>
      </trkpt>
      <trkpt lat="44.99037" lon="4.4659">
        <ele>831</ele>
        <time>2015-11-30T09:32:29Z</time>
      </trkpt>
      <trkpt lat="44.99024" lon="4.46586">
        <ele>831</ele>
        <time>2015-11-30T09:32:32Z</time>
      </trkpt>
      <trkpt lat="44.99023" lon="4.46574">
        <ele>831</ele>
        <time>2015-11-30T09:32:37Z</time>
      </trkpt>
      <trkpt lat="44.99018" lon="4.46566">
        <ele>830</ele>
        <time>2015-11-30T09:32:42Z</time>
      </trkpt>
      <trkpt lat="44.99016" lon="4.46557">
        <ele>830</ele>
        <time>2015-11-30T09:32:49Z</time>
      </trkpt>
      <trkpt lat="44.99009" lon="4.46551">
        <ele>830</ele>
        <time>2015-11-30T09:32:54Z</time>
      </trkpt>
      <trkpt lat="44.99005" lon="4.46548">
        <ele>831</ele>
        <time>2015-11-30T09:33:09Z</time>
      </trkpt>
      <trkpt lat="44.98995" lon="4.46526">
        <ele>835</ele>
        <time>2015-11-30T09:33:14Z</time>
      </trkpt>
      <trkpt lat="44.98992" lon="4.46514">
        <ele>838</ele>
        <time>2015-11-30T09:33:21Z</time>
      </trkpt>
      <trkpt lat="44.98986" lon="4.46506">
        <ele>840</ele>
        <time>2015-11-30T09:33:36Z</time>
      </trkpt>
      <trkpt lat="44.98983" lon="4.46496">
        <ele>841</ele>
        <time>2015-11-30T09:33:42Z</time>
      </trkpt>
      <trkpt lat="44.9898" lon="4.46489">
        <ele>841</ele>
        <time>2015-11-30T09:33:46Z</time>
      </trkpt>
      <trkpt lat="44.98979" lon="4.46479">
        <ele>841</ele>
        <time>2015-11-30T09:33:50Z</time>
      </trkpt>
      <trkpt lat="44.98976" lon="4.46468">
        <ele>842</ele>
        <time>2015-11-30T09:33:58Z</time>
      </trkpt>
      <trkpt lat="44.98971" lon="4.46461">
        <ele>843</ele>
        <time>2015-11-30T09:34:04Z</time>
      </trkpt>
      <trkpt lat="44.98967" lon="4.46451">
        <ele>844</ele>
        <time>2015-11-30T09:34:09Z</time>
      </trkpt>
      <trkpt lat="44.98962" lon="4.46443">
        <ele>845</ele>
        <time>2015-11-30T09:34:17Z</time>
      </trkpt>
      <trkpt lat="44.98958" lon="4.46432">
        <ele>845</ele>
        <time>2015-11-30T09:34:25Z</time>
      </trkpt>
      <trkpt lat="44.98955" lon="4.46422">
        <ele>845</ele>
        <time>2015-11-30T09:34:31Z</time>
      </trkpt>
      <trkpt lat="44.98952" lon="4.46411">
        <ele>845</ele>
        <time>2015-11-30T09:34:35Z</time>
      </trkpt>
      <trkpt lat="44.98944" lon="4.464">
        <ele>845</ele>
        <time>2015-11-30T09:34:39Z</time>
      </trkpt>
      <trkpt lat="44.98936" lon="4.4639">
        <ele>845</ele>
        <time>2015-11-30T09:34:43Z</time>
      </trkpt>
      <trkpt lat="44.98926" lon="4.46381">
        <ele>846</ele>
        <time>2015-11-30T09:34:47Z</time>
      </trkpt>
      <trkpt lat="44.98917" lon="4.46371">
        <ele>846</ele>
        <time>2015-11-30T09:34:51Z</time>
      </trkpt>
      <trkpt lat="44.98915" lon="4.46354">
        <ele>846</ele>
        <time>2015-11-30T09:34:55Z</time>
      </trkpt>
      <trkpt lat="44.98908" lon="4.46343">
        <ele>847</ele>
        <time>2015-11-30T09:34:59Z</time>
      </trkpt>
      <trkpt lat="44.98904" lon="4.46332">
        <ele>847</ele>
        <time>2015-11-30T09:35:03Z</time>
      </trkpt>
      <trkpt lat="44.98898" lon="4.46325">
        <ele>849</ele>
        <time>2015-11-30T09:35:09Z</time>
      </trkpt>
      <trkpt lat="44.98894" lon="4.46316">
        <ele>849</ele>
        <time>2015-11-30T09:35:13Z</time>
      </trkpt>
      <trkpt lat="44.98889" lon="4.46306">
        <ele>849</ele>
        <time>2015-11-30T09:35:17Z</time>
      </trkpt>
      <trkpt lat="44.98887" lon="4.4629">
        <ele>850</ele>
        <time>2015-11-30T09:35:21Z</time>
      </trkpt>
      <trkpt lat="44.98881" lon="4.4628">
        <ele>851</ele>
        <time>2015-11-30T09:35:25Z</time>
      </trkpt>
      <trkpt lat="44.98874" lon="4.46265">
        <ele>851</ele>
        <time>2015-11-30T09:35:30Z</time>
      </trkpt>
      <trkpt lat="44.98872" lon="4.46258">
        <ele>850</ele>
        <time>2015-11-30T09:35:33Z</time>
      </trkpt>
      <trkpt lat="44.9887" lon="4.46245">
        <ele>851</ele>
        <time>2015-11-30T09:35:37Z</time>
      </trkpt>
      <trkpt lat="44.98866" lon="4.46233">
        <ele>850</ele>
        <time>2015-11-30T09:35:41Z</time>
      </trkpt>
      <trkpt lat="44.98861" lon="4.46222">
        <ele>850</ele>
        <time>2015-11-30T09:35:45Z</time>
      </trkpt>
      <trkpt lat="44.98854" lon="4.46212">
        <ele>850</ele>
        <time>2015-11-30T09:35:49Z</time>
      </trkpt>
      <trkpt lat="44.98848" lon="4.46206">
        <ele>850</ele>
        <time>2015-11-30T09:35:53Z</time>
      </trkpt>
      <trkpt lat="44.98844" lon="4.46195">
        <ele>849</ele>
        <time>2015-11-30T09:35:58Z</time>
      </trkpt>
      <trkpt lat="44.98842" lon="4.4618">
        <ele>849</ele>
        <time>2015-11-30T09:36:02Z</time>
      </trkpt>
      <trkpt lat="44.9884" lon="4.46171">
        <ele>849</ele>
        <time>2015-11-30T09:36:11Z</time>
      </trkpt>
      <trkpt lat="44.9884" lon="4.46158">
        <ele>848</ele>
        <time>2015-11-30T09:36:16Z</time>
      </trkpt>
      <trkpt lat="44.98838" lon="4.46151">
        <ele>848</ele>
        <time>2015-11-30T09:36:20Z</time>
      </trkpt>
      <trkpt lat="44.98839" lon="4.4614">
        <ele>848</ele>
        <time>2015-11-30T09:36:23Z</time>
      </trkpt>
      <trkpt lat="44.98838" lon="4.4613">
        <ele>848</ele>
        <time>2015-11-30T09:36:27Z</time>
      </trkpt>
      <trkpt lat="44.98834" lon="4.46119">
        <ele>848</ele>
        <time>2015-11-30T09:36:32Z</time>
      </trkpt>
      <trkpt lat="44.98833" lon="4.46101">
        <ele>852</ele>
        <time>2015-11-30T09:36:37Z</time>
      </trkpt>
      <trkpt lat="44.98826" lon="4.46099">
        <ele>853</ele>
        <time>2015-11-30T09:36:45Z</time>
      </trkpt>
      <trkpt lat="44.98821" lon="4.46107">
        <ele>853</ele>
        <time>2015-11-30T09:36:51Z</time>
      </trkpt>
      <trkpt lat="44.98816" lon="4.46114">
        <ele>852</ele>
        <time>2015-11-30T09:36:55Z</time>
      </trkpt>
      <trkpt lat="44.98814" lon="4.46125">
        <ele>852</ele>
        <time>2015-11-30T09:36:59Z</time>
      </trkpt>
      <trkpt lat="44.98812" lon="4.4614">
        <ele>851</ele>
        <time>2015-11-30T09:37:03Z</time>
      </trkpt>
      <trkpt lat="44.98811" lon="4.46155">
        <ele>851</ele>
        <time>2015-11-30T09:37:07Z</time>
      </trkpt>
      <trkpt lat="44.98811" lon="4.46165">
        <ele>850</ele>
        <time>2015-11-30T09:37:11Z</time>
      </trkpt>
      <trkpt lat="44.98809" lon="4.46192">
        <ele>850</ele>
        <time>2015-11-30T09:37:15Z</time>
      </trkpt>
      <trkpt lat="44.98806" lon="4.46197">
        <ele>850</ele>
        <time>2015-11-30T09:37:19Z</time>
      </trkpt>
      <trkpt lat="44.98798" lon="4.46198">
        <ele>849</ele>
        <time>2015-11-30T09:37:24Z</time>
      </trkpt>
      <trkpt lat="44.98789" lon="4.46192">
        <ele>847</ele>
        <time>2015-11-30T09:37:29Z</time>
      </trkpt>
      <trkpt lat="44.98781" lon="4.46194">
        <ele>845</ele>
        <time>2015-11-30T09:37:34Z</time>
      </trkpt>
      <trkpt lat="44.98774" lon="4.46202">
        <ele>844</ele>
        <time>2015-11-30T09:37:40Z</time>
      </trkpt>
      <trkpt lat="44.98773" lon="4.46211">
        <ele>843</ele>
        <time>2015-11-30T09:37:45Z</time>
      </trkpt>
      <trkpt lat="44.98775" lon="4.46223">
        <ele>841</ele>
        <time>2015-11-30T09:37:49Z</time>
      </trkpt>
      <trkpt lat="44.98774" lon="4.46235">
        <ele>840</ele>
        <time>2015-11-30T09:37:53Z</time>
      </trkpt>
      <trkpt lat="44.9877" lon="4.46255">
        <ele>839</ele>
        <time>2015-11-30T09:37:58Z</time>
      </trkpt>
      <trkpt lat="44.98772" lon="4.46264">
        <ele>838</ele>
        <time>2015-11-30T09:38:00Z</time>
      </trkpt>
      <trkpt lat="44.98776" lon="4.46275">
        <ele>838</ele>
        <time>2015-11-30T09:38:06Z</time>
      </trkpt>
      <trkpt lat="44.98782" lon="4.46291">
        <ele>837</ele>
        <time>2015-11-30T09:38:11Z</time>
      </trkpt>
      <trkpt lat="44.98785" lon="4.46301">
        <ele>836</ele>
        <time>2015-11-30T09:38:15Z</time>
      </trkpt>
      <trkpt lat="44.98786" lon="4.46309">
        <ele>835</ele>
        <time>2015-11-30T09:38:18Z</time>
      </trkpt>
      <trkpt lat="44.98789" lon="4.46321">
        <ele>834</ele>
        <time>2015-11-30T09:38:22Z</time>
      </trkpt>
      <trkpt lat="44.98794" lon="4.46328">
        <ele>834</ele>
        <time>2015-11-30T09:38:25Z</time>
      </trkpt>
      <trkpt lat="44.98798" lon="4.46335">
        <ele>833</ele>
        <time>2015-11-30T09:38:29Z</time>
      </trkpt>
      <trkpt lat="44.988" lon="4.46344">
        <ele>832</ele>
        <time>2015-11-30T09:38:33Z</time>
      </trkpt>
      <trkpt lat="44.98806" lon="4.46352">
        <ele>831</ele>
        <time>2015-11-30T09:38:39Z</time>
      </trkpt>
      <trkpt lat="44.98811" lon="4.46372">
        <ele>829</ele>
        <time>2015-11-30T09:38:44Z</time>
      </trkpt>
      <trkpt lat="44.98811" lon="4.46398">
        <ele>826</ele>
        <time>2015-11-30T09:38:47Z</time>
      </trkpt>
      <trkpt lat="44.98807" lon="4.46421">
        <ele>824</ele>
        <time>2015-11-30T09:38:51Z</time>
      </trkpt>
      <trkpt lat="44.98807" lon="4.46438">
        <ele>824</ele>
        <time>2015-11-30T09:38:56Z</time>
      </trkpt>
      <trkpt lat="44.98808" lon="4.46451">
        <ele>823</ele>
        <time>2015-11-30T09:39:00Z</time>
      </trkpt>
      <trkpt lat="44.98806" lon="4.46462">
        <ele>822</ele>
        <time>2015-11-30T09:39:04Z</time>
      </trkpt>
      <trkpt lat="44.98803" lon="4.46473">
        <ele>821</ele>
        <time>2015-11-30T09:39:08Z</time>
      </trkpt>
      <trkpt lat="44.98806" lon="4.46484">
        <ele>819</ele>
        <time>2015-11-30T09:39:12Z</time>
      </trkpt>
      <trkpt lat="44.98806" lon="4.46495">
        <ele>817</ele>
        <time>2015-11-30T09:39:16Z</time>
      </trkpt>
      <trkpt lat="44.98806" lon="4.46508">
        <ele>815</ele>
        <time>2015-11-30T09:39:19Z</time>
      </trkpt>
      <trkpt lat="44.98809" lon="4.46517">
        <ele>813</ele>
        <time>2015-11-30T09:39:23Z</time>
      </trkpt>
      <trkpt lat="44.98809" lon="4.46528">
        <ele>812</ele>
        <time>2015-11-30T09:39:27Z</time>
      </trkpt>
      <trkpt lat="44.98813" lon="4.46541">
        <ele>811</ele>
        <time>2015-11-30T09:39:32Z</time>
      </trkpt>
      <trkpt lat="44.98817" lon="4.46552">
        <ele>809</ele>
        <time>2015-11-30T09:39:36Z</time>
      </trkpt>
      <trkpt lat="44.98825" lon="4.4656">
        <ele>807</ele>
        <time>2015-11-30T09:39:40Z</time>
      </trkpt>
      <trkpt lat="44.98831" lon="4.46566">
        <ele>807</ele>
        <time>2015-11-30T09:39:44Z</time>
      </trkpt>
      <trkpt lat="44.98836" lon="4.4657">
        <ele>806</ele>
        <time>2015-11-30T09:39:48Z</time>
      </trkpt>
      <trkpt lat="44.98844" lon="4.4657">
        <ele>804</ele>
        <time>2015-11-30T09:39:52Z</time>
      </trkpt>
      <trkpt lat="44.98852" lon="4.46572">
        <ele>804</ele>
        <time>2015-11-30T09:39:56Z</time>
      </trkpt>
      <trkpt lat="44.98859" lon="4.4658">
        <ele>802</ele>
        <time>2015-11-30T09:40:03Z</time>
      </trkpt>
      <trkpt lat="44.98861" lon="4.46589">
        <ele>801</ele>
        <time>2015-11-30T09:40:08Z</time>
      </trkpt>
      <trkpt lat="44.98866" lon="4.466">
        <ele>799</ele>
        <time>2015-11-30T09:40:13Z</time>
      </trkpt>
      <trkpt lat="44.98872" lon="4.46608">
        <ele>798</ele>
        <time>2015-11-30T09:40:19Z</time>
      </trkpt>
      <trkpt lat="44.98878" lon="4.46612">
        <ele>796</ele>
        <time>2015-11-30T09:40:24Z</time>
      </trkpt>
      <trkpt lat="44.98881" lon="4.46624">
        <ele>795</ele>
        <time>2015-11-30T09:40:29Z</time>
      </trkpt>
      <trkpt lat="44.98882" lon="4.46632">
        <ele>793</ele>
        <time>2015-11-30T09:40:33Z</time>
      </trkpt>
      <trkpt lat="44.98879" lon="4.46644">
        <ele>792</ele>
        <time>2015-11-30T09:40:38Z</time>
      </trkpt>
      <trkpt lat="44.98875" lon="4.46654">
        <ele>790</ele>
        <time>2015-11-30T09:40:44Z</time>
      </trkpt>
      <trkpt lat="44.98873" lon="4.46666">
        <ele>789</ele>
        <time>2015-11-30T09:40:48Z</time>
      </trkpt>
      <trkpt lat="44.9887" lon="4.46684">
        <ele>788</ele>
        <time>2015-11-30T09:40:53Z</time>
      </trkpt>
      <trkpt lat="44.9887" lon="4.46694">
        <ele>786</ele>
        <time>2015-11-30T09:41:00Z</time>
      </trkpt>
      <trkpt lat="44.98869" lon="4.46705">
        <ele>783</ele>
        <time>2015-11-30T09:41:08Z</time>
      </trkpt>
      <trkpt lat="44.98869" lon="4.46714">
        <ele>782</ele>
        <time>2015-11-30T09:41:12Z</time>
      </trkpt>
      <trkpt lat="44.98872" lon="4.4673">
        <ele>781</ele>
        <time>2015-11-30T09:41:17Z</time>
      </trkpt>
      <trkpt lat="44.9889" lon="4.46881">
        <ele>775</ele>
        <time>2015-11-30T09:41:22Z</time>
      </trkpt>
      <trkpt lat="44.98901" lon="4.46895">
        <ele>772</ele>
        <time>2015-11-30T09:41:26Z</time>
      </trkpt>
      <trkpt lat="44.98906" lon="4.46895">
        <ele>770</ele>
        <time>2015-11-30T09:41:29Z</time>
      </trkpt>
      <trkpt lat="44.98913" lon="4.46894">
        <ele>768</ele>
        <time>2015-11-30T09:41:32Z</time>
      </trkpt>
      <trkpt lat="44.98921" lon="4.46893">
        <ele>764</ele>
        <time>2015-11-30T09:41:39Z</time>
      </trkpt>
      <trkpt lat="44.98927" lon="4.46891">
        <ele>763</ele>
        <time>2015-11-30T09:41:44Z</time>
      </trkpt>
      <trkpt lat="44.98935" lon="4.46888">
        <ele>762</ele>
        <time>2015-11-30T09:41:47Z</time>
      </trkpt>
      <trkpt lat="44.98951" lon="4.46894">
        <ele>761</ele>
        <time>2015-11-30T09:41:51Z</time>
      </trkpt>
      <trkpt lat="44.98973" lon="4.46898">
        <ele>763</ele>
        <time>2015-11-30T09:41:54Z</time>
      </trkpt>
      <trkpt lat="44.98967" lon="4.46904">
        <ele>759</ele>
        <time>2015-11-30T09:42:01Z</time>
      </trkpt>
      <trkpt lat="44.98959" lon="4.4691">
        <ele>756</ele>
        <time>2015-11-30T09:42:07Z</time>
      </trkpt>
      <trkpt lat="44.98954" lon="4.46918">
        <ele>753</ele>
        <time>2015-11-30T09:42:12Z</time>
      </trkpt>
      <trkpt lat="44.98949" lon="4.46926">
        <ele>750</ele>
        <time>2015-11-30T09:42:17Z</time>
      </trkpt>
      <trkpt lat="44.98944" lon="4.46932">
        <ele>747</ele>
        <time>2015-11-30T09:42:21Z</time>
      </trkpt>
      <trkpt lat="44.9894" lon="4.4694">
        <ele>744</ele>
        <time>2015-11-30T09:42:25Z</time>
      </trkpt>
      <trkpt lat="44.98933" lon="4.46949">
        <ele>740</ele>
        <time>2015-11-30T09:42:29Z</time>
      </trkpt>
      <trkpt lat="44.98925" lon="4.46956">
        <ele>738</ele>
        <time>2015-11-30T09:42:34Z</time>
      </trkpt>
      <trkpt lat="44.98917" lon="4.46961">
        <ele>734</ele>
        <time>2015-11-30T09:42:40Z</time>
      </trkpt>
      <trkpt lat="44.98911" lon="4.46963">
        <ele>733</ele>
        <time>2015-11-30T09:42:44Z</time>
      </trkpt>
      <trkpt lat="44.98904" lon="4.46962">
        <ele>731</ele>
        <time>2015-11-30T09:42:47Z</time>
      </trkpt>
      <trkpt lat="44.98896" lon="4.46963">
        <ele>729</ele>
        <time>2015-11-30T09:42:51Z</time>
      </trkpt>
      <trkpt lat="44.98888" lon="4.46966">
        <ele>730</ele>
        <time>2015-11-30T09:42:54Z</time>
      </trkpt>
      <trkpt lat="44.9888" lon="4.46968">
        <ele>730</ele>
        <time>2015-11-30T09:43:00Z</time>
      </trkpt>
      <trkpt lat="44.98872" lon="4.46968">
        <ele>726</ele>
        <time>2015-11-30T09:43:06Z</time>
      </trkpt>
      <trkpt lat="44.98866" lon="4.46963">
        <ele>724</ele>
        <time>2015-11-30T09:43:10Z</time>
      </trkpt>
      <trkpt lat="44.98859" lon="4.46957">
        <ele>720</ele>
        <time>2015-11-30T09:43:16Z</time>
      </trkpt>
      <trkpt lat="44.98855" lon="4.46952">
        <ele>717</ele>
        <time>2015-11-30T09:43:20Z</time>
      </trkpt>
      <trkpt lat="44.98848" lon="4.4695">
        <ele>714</ele>
        <time>2015-11-30T09:43:24Z</time>
      </trkpt>
      <trkpt lat="44.98815" lon="4.46941">
        <ele>721</ele>
        <time>2015-11-30T09:43:27Z</time>
      </trkpt>
      <trkpt lat="44.98821" lon="4.46949">
        <ele>719</ele>
        <time>2015-11-30T09:43:42Z</time>
      </trkpt>
      <trkpt lat="44.98824" lon="4.46956">
        <ele>717</ele>
        <time>2015-11-30T09:43:46Z</time>
      </trkpt>
      <trkpt lat="44.98826" lon="4.46968">
        <ele>715</ele>
        <time>2015-11-30T09:43:50Z</time>
      </trkpt>
      <trkpt lat="44.98831" lon="4.46975">
        <ele>714</ele>
        <time>2015-11-30T09:43:54Z</time>
      </trkpt>
      <trkpt lat="44.98837" lon="4.46985">
        <ele>713</ele>
        <time>2015-11-30T09:43:58Z</time>
      </trkpt>
      <trkpt lat="44.98843" lon="4.46995">
        <ele>711</ele>
        <time>2015-11-30T09:44:02Z</time>
      </trkpt>
      <trkpt lat="44.98845" lon="4.47007">
        <ele>710</ele>
        <time>2015-11-30T09:44:06Z</time>
      </trkpt>
      <trkpt lat="44.9885" lon="4.47016">
        <ele>708</ele>
        <time>2015-11-30T09:44:10Z</time>
      </trkpt>
      <trkpt lat="44.98857" lon="4.4702">
        <ele>707</ele>
        <time>2015-11-30T09:44:14Z</time>
      </trkpt>
      <trkpt lat="44.98863" lon="4.47024">
        <ele>705</ele>
        <time>2015-11-30T09:44:18Z</time>
      </trkpt>
      <trkpt lat="44.98865" lon="4.4704">
        <ele>703</ele>
        <time>2015-11-30T09:44:22Z</time>
      </trkpt>
      <trkpt lat="44.98872" lon="4.47048">
        <ele>701</ele>
        <time>2015-11-30T09:44:26Z</time>
      </trkpt>
      <trkpt lat="44.98879" lon="4.47053">
        <ele>700</ele>
        <time>2015-11-30T09:44:30Z</time>
      </trkpt>
      <trkpt lat="44.98885" lon="4.4706">
        <ele>698</ele>
        <time>2015-11-30T09:44:34Z</time>
      </trkpt>
      <trkpt lat="44.98896" lon="4.47067">
        <ele>697</ele>
        <time>2015-11-30T09:44:38Z</time>
      </trkpt>
      <trkpt lat="44.98903" lon="4.47076">
        <ele>696</ele>
        <time>2015-11-30T09:44:42Z</time>
      </trkpt>
      <trkpt lat="44.98911" lon="4.47079">
        <ele>694</ele>
        <time>2015-11-30T09:44:48Z</time>
      </trkpt>
      <trkpt lat="44.98918" lon="4.47076">
        <ele>690</ele>
        <time>2015-11-30T09:44:58Z</time>
      </trkpt>
      <trkpt lat="44.98922" lon="4.4707">
        <ele>688</ele>
        <time>2015-11-30T09:45:02Z</time>
      </trkpt>
      <trkpt lat="44.98929" lon="4.47063">
        <ele>686</ele>
        <time>2015-11-30T09:45:06Z</time>
      </trkpt>
      <trkpt lat="44.98936" lon="4.47058">
        <ele>684</ele>
        <time>2015-11-30T09:45:09Z</time>
      </trkpt>
      <trkpt lat="44.98944" lon="4.47052">
        <ele>682</ele>
        <time>2015-11-30T09:45:14Z</time>
      </trkpt>
      <trkpt lat="44.98948" lon="4.47041">
        <ele>679</ele>
        <time>2015-11-30T09:45:20Z</time>
      </trkpt>
      <trkpt lat="44.9895" lon="4.47039">
        <ele>677</ele>
        <time>2015-11-30T09:45:24Z</time>
      </trkpt>
      <trkpt lat="44.9894" lon="4.47019">
        <ele>676</ele>
        <time>2015-11-30T09:45:28Z</time>
      </trkpt>
      <trkpt lat="44.98948" lon="4.47021">
        <ele>676</ele>
        <time>2015-11-30T09:45:32Z</time>
      </trkpt>
      <trkpt lat="44.98956" lon="4.47022">
        <ele>676</ele>
        <time>2015-11-30T09:45:35Z</time>
      </trkpt>
      <trkpt lat="44.98964" lon="4.47031">
        <ele>675</ele>
        <time>2015-11-30T09:45:39Z</time>
      </trkpt>
      <trkpt lat="44.9897" lon="4.47043">
        <ele>674</ele>
        <time>2015-11-30T09:45:42Z</time>
      </trkpt>
      <trkpt lat="44.98985" lon="4.47049">
        <ele>674</ele>
        <time>2015-11-30T09:45:46Z</time>
      </trkpt>
      <trkpt lat="44.99003" lon="4.47056">
        <ele>673</ele>
        <time>2015-11-30T09:45:51Z</time>
      </trkpt>
      <trkpt lat="44.99013" lon="4.47056">
        <ele>672</ele>
        <time>2015-11-30T09:45:54Z</time>
      </trkpt>
      <trkpt lat="44.99028" lon="4.47055">
        <ele>671</ele>
        <time>2015-11-30T09:45:59Z</time>
      </trkpt>
      <trkpt lat="44.99034" lon="4.47061">
        <ele>670</ele>
        <time>2015-11-30T09:46:03Z</time>
      </trkpt>
      <trkpt lat="44.9904" lon="4.47065">
        <ele>668</ele>
        <time>2015-11-30T09:46:12Z</time>
      </trkpt>
      <trkpt lat="44.99048" lon="4.47073">
        <ele>668</ele>
        <time>2015-11-30T09:46:16Z</time>
      </trkpt>
      <trkpt lat="44.99062" lon="4.47071">
        <ele>668</ele>
        <time>2015-11-30T09:46:20Z</time>
      </trkpt>
      <trkpt lat="44.99071" lon="4.47077">
        <ele>668</ele>
        <time>2015-11-30T09:46:24Z</time>
      </trkpt>
      <trkpt lat="44.99073" lon="4.47087">
        <ele>667</ele>
        <time>2015-11-30T09:46:28Z</time>
      </trkpt>
      <trkpt lat="44.99069" lon="4.47098">
        <ele>667</ele>
        <time>2015-11-30T09:46:32Z</time>
      </trkpt>
      <trkpt lat="44.99065" lon="4.47107">
        <ele>667</ele>
        <time>2015-11-30T09:46:36Z</time>
      </trkpt>
      <trkpt lat="44.99066" lon="4.47118">
        <ele>666</ele>
        <time>2015-11-30T09:46:42Z</time>
      </trkpt>
      <trkpt lat="44.99095" lon="4.47129">
        <ele>666</ele>
        <time>2015-11-30T09:46:46Z</time>
      </trkpt>
      <trkpt lat="44.99119" lon="4.47129">
        <ele>670</ele>
        <time>2015-11-30T09:46:50Z</time>
      </trkpt>
      <trkpt lat="44.9913" lon="4.47147">
        <ele>675</ele>
        <time>2015-11-30T09:46:55Z</time>
      </trkpt>
      <trkpt lat="44.99132" lon="4.47156">
        <ele>679</ele>
        <time>2015-11-30T09:47:06Z</time>
      </trkpt>
      <trkpt lat="44.9913" lon="4.47165">
        <ele>683</ele>
        <time>2015-11-30T09:47:09Z</time>
      </trkpt>
      <trkpt lat="44.99126" lon="4.47176">
        <ele>686</ele>
        <time>2015-11-30T09:47:20Z</time>
      </trkpt>
      <trkpt lat="44.9912" lon="4.47184">
        <ele>688</ele>
        <time>2015-11-30T09:47:29Z</time>
      </trkpt>
      <trkpt lat="44.99116" lon="4.47193">
        <ele>688</ele>
        <time>2015-11-30T09:47:36Z</time>
      </trkpt>
      <trkpt lat="44.99117" lon="4.47206">
        <ele>688</ele>
        <time>2015-11-30T09:47:41Z</time>
      </trkpt>
      <trkpt lat="44.9912" lon="4.47218">
        <ele>689</ele>
        <time>2015-11-30T09:47:46Z</time>
      </trkpt>
      <trkpt lat="44.99121" lon="4.47229">
        <ele>689</ele>
        <time>2015-11-30T09:47:50Z</time>
      </trkpt>
      <trkpt lat="44.99124" lon="4.47239">
        <ele>689</ele>
        <time>2015-11-30T09:47:55Z</time>
      </trkpt>
      <trkpt lat="44.9913" lon="4.47247">
        <ele>688</ele>
        <time>2015-11-30T09:48:01Z</time>
      </trkpt>
      <trkpt lat="44.99134" lon="4.47255">
        <ele>688</ele>
        <time>2015-11-30T09:48:05Z</time>
      </trkpt>
      <trkpt lat="44.9913" lon="4.47266">
        <ele>688</ele>
        <time>2015-11-30T09:48:09Z</time>
      </trkpt>
      <trkpt lat="44.99135" lon="4.47276">
        <ele>688</ele>
        <time>2015-11-30T09:48:14Z</time>
      </trkpt>
      <trkpt lat="44.99141" lon="4.47284">
        <ele>688</ele>
        <time>2015-11-30T09:48:18Z</time>
      </trkpt>
      <trkpt lat="44.99139" lon="4.47302">
        <ele>686</ele>
        <time>2015-11-30T09:48:23Z</time>
      </trkpt>
      <trkpt lat="44.99138" lon="4.47318">
        <ele>685</ele>
        <time>2015-11-30T09:48:28Z</time>
      </trkpt>
      <trkpt lat="44.99138" lon="4.47331">
        <ele>684</ele>
        <time>2015-11-30T09:48:32Z</time>
      </trkpt>
      <trkpt lat="44.99137" lon="4.47345">
        <ele>684</ele>
        <time>2015-11-30T09:48:36Z</time>
      </trkpt>
      <trkpt lat="44.99135" lon="4.47352">
        <ele>683</ele>
        <time>2015-11-30T09:48:39Z</time>
      </trkpt>
      <trkpt lat="44.99133" lon="4.47365">
        <ele>682</ele>
        <time>2015-11-30T09:48:43Z</time>
      </trkpt>
      <trkpt lat="44.99129" lon="4.4738">
        <ele>680</ele>
        <time>2015-11-30T09:48:48Z</time>
      </trkpt>
      <trkpt lat="44.99124" lon="4.47394">
        <ele>678</ele>
        <time>2015-11-30T09:48:52Z</time>
      </trkpt>
      <trkpt lat="44.99119" lon="4.47407">
        <ele>676</ele>
        <time>2015-11-30T09:48:56Z</time>
      </trkpt>
      <trkpt lat="44.99115" lon="4.47418">
        <ele>674</ele>
        <time>2015-11-30T09:49:00Z</time>
      </trkpt>
      <trkpt lat="44.99111" lon="4.47429">
        <ele>672</ele>
        <time>2015-11-30T09:49:05Z</time>
      </trkpt>
      <trkpt lat="44.99105" lon="4.47441">
        <ele>671</ele>
        <time>2015-11-30T09:49:10Z</time>
      </trkpt>
      <trkpt lat="44.991" lon="4.47456">
        <ele>669</ele>
        <time>2015-11-30T09:49:14Z</time>
      </trkpt>
      <trkpt lat="44.99096" lon="4.47473">
        <ele>668</ele>
        <time>2015-11-30T09:49:18Z</time>
      </trkpt>
      <trkpt lat="44.99096" lon="4.47486">
        <ele>667</ele>
        <time>2015-11-30T09:49:22Z</time>
      </trkpt>
      <trkpt lat="44.99094" lon="4.47495">
        <ele>667</ele>
        <time>2015-11-30T09:49:26Z</time>
      </trkpt>
      <trkpt lat="44.99093" lon="4.47512">
        <ele>666</ele>
        <time>2015-11-30T09:49:31Z</time>
      </trkpt>
      <trkpt lat="44.99095" lon="4.47523">
        <ele>665</ele>
        <time>2015-11-30T09:49:35Z</time>
      </trkpt>
      <trkpt lat="44.99097" lon="4.47533">
        <ele>664</ele>
        <time>2015-11-30T09:49:39Z</time>
      </trkpt>
      <trkpt lat="44.99104" lon="4.47542">
        <ele>663</ele>
        <time>2015-11-30T09:49:44Z</time>
      </trkpt>
      <trkpt lat="44.99111" lon="4.47551">
        <ele>662</ele>
        <time>2015-11-30T09:49:47Z</time>
      </trkpt>
      <trkpt lat="44.99113" lon="4.47562">
        <ele>661</ele>
        <time>2015-11-30T09:49:51Z</time>
      </trkpt>
      <trkpt lat="44.99115" lon="4.47574">
        <ele>661</ele>
        <time>2015-11-30T09:49:55Z</time>
      </trkpt>
      <trkpt lat="44.9912" lon="4.47583">
        <ele>660</ele>
        <time>2015-11-30T09:49:59Z</time>
      </trkpt>
      <trkpt lat="44.99125" lon="4.47592">
        <ele>660</ele>
        <time>2015-11-30T09:50:04Z</time>
      </trkpt>
      <trkpt lat="44.99131" lon="4.47604">
        <ele>659</ele>
        <time>2015-11-30T09:50:08Z</time>
      </trkpt>
      <trkpt lat="44.99133" lon="4.47616">
        <ele>658</ele>
        <time>2015-11-30T09:50:12Z</time>
      </trkpt>
      <trkpt lat="44.99137" lon="4.47627">
        <ele>658</ele>
        <time>2015-11-30T09:50:16Z</time>
      </trkpt>
      <trkpt lat="44.99139" lon="4.4764">
        <ele>658</ele>
        <time>2015-11-30T09:50:20Z</time>
      </trkpt>
      <trkpt lat="44.9914" lon="4.47657">
        <ele>657</ele>
        <time>2015-11-30T09:50:24Z</time>
      </trkpt>
      <trkpt lat="44.99149" lon="4.47678">
        <ele>656</ele>
        <time>2015-11-30T09:50:29Z</time>
      </trkpt>
      <trkpt lat="44.99153" lon="4.47692">
        <ele>656</ele>
        <time>2015-11-30T09:50:32Z</time>
      </trkpt>
      <trkpt lat="44.99159" lon="4.47709">
        <ele>656</ele>
        <time>2015-11-30T09:50:36Z</time>
      </trkpt>
      <trkpt lat="44.99165" lon="4.47724">
        <ele>656</ele>
        <time>2015-11-30T09:50:40Z</time>
      </trkpt>
      <trkpt lat="44.99169" lon="4.47739">
        <ele>655</ele>
        <time>2015-11-30T09:50:44Z</time>
      </trkpt>
      <trkpt lat="44.99177" lon="4.47751">
        <ele>654</ele>
        <time>2015-11-30T09:50:48Z</time>
      </trkpt>
      <trkpt lat="44.99183" lon="4.47762">
        <ele>654</ele>
        <time>2015-11-30T09:50:51Z</time>
      </trkpt>
      <trkpt lat="44.9919" lon="4.47774">
        <ele>653</ele>
        <time>2015-11-30T09:50:56Z</time>
      </trkpt>
      <trkpt lat="44.99195" lon="4.47778">
        <ele>651</ele>
        <time>2015-11-30T09:51:00Z</time>
      </trkpt>
      <trkpt lat="44.99201" lon="4.47785">
        <ele>649</ele>
        <time>2015-11-30T09:51:04Z</time>
      </trkpt>
      <trkpt lat="44.99204" lon="4.47791">
        <ele>648</ele>
        <time>2015-11-30T09:51:07Z</time>
      </trkpt>
      <trkpt lat="44.99201" lon="4.4781">
        <ele>651</ele>
        <time>2015-11-30T09:51:11Z</time>
      </trkpt>
      <trkpt lat="44.99209" lon="4.47811">
        <ele>650</ele>
        <time>2015-11-30T09:51:15Z</time>
      </trkpt>
      <trkpt lat="44.99218" lon="4.47808">
        <ele>648</ele>
        <time>2015-11-30T09:51:20Z</time>
      </trkpt>
      <trkpt lat="44.99228" lon="4.47804">
        <ele>647</ele>
        <time>2015-11-30T09:51:24Z</time>
      </trkpt>
      <trkpt lat="44.99234" lon="4.478">
        <ele>645</ele>
        <time>2015-11-30T09:51:28Z</time>
      </trkpt>
      <trkpt lat="44.9924" lon="4.47794">
        <ele>644</ele>
        <time>2015-11-30T09:51:32Z</time>
      </trkpt>
      <trkpt lat="44.99246" lon="4.47783">
        <ele>643</ele>
        <time>2015-11-30T09:51:36Z</time>
      </trkpt>
      <trkpt lat="44.99252" lon="4.47776">
        <ele>643</ele>
        <time>2015-11-30T09:51:39Z</time>
      </trkpt>
      <trkpt lat="44.99265" lon="4.47759">
        <ele>642</ele>
        <time>2015-11-30T09:51:44Z</time>
      </trkpt>
      <trkpt lat="44.99276" lon="4.47755">
        <ele>642</ele>
        <time>2015-11-30T09:51:48Z</time>
      </trkpt>
      <trkpt lat="44.99284" lon="4.47759">
        <ele>641</ele>
        <time>2015-11-30T09:51:53Z</time>
      </trkpt>
      <trkpt lat="44.99289" lon="4.47763">
        <ele>641</ele>
        <time>2015-11-30T09:51:56Z</time>
      </trkpt>
      <trkpt lat="44.99297" lon="4.47766">
        <ele>640</ele>
        <time>2015-11-30T09:52:00Z</time>
      </trkpt>
      <trkpt lat="44.99311" lon="4.47779">
        <ele>640</ele>
        <time>2015-11-30T09:52:04Z</time>
      </trkpt>
      <trkpt lat="44.99318" lon="4.47788">
        <ele>639</ele>
        <time>2015-11-30T09:52:09Z</time>
      </trkpt>
      <trkpt lat="44.99328" lon="4.47797">
        <ele>639</ele>
        <time>2015-11-30T09:52:12Z</time>
      </trkpt>
      <trkpt lat="44.99335" lon="4.47808">
        <ele>639</ele>
        <time>2015-11-30T09:52:16Z</time>
      </trkpt>
      <trkpt lat="44.9934" lon="4.4782">
        <ele>640</ele>
        <time>2015-11-30T09:52:20Z</time>
      </trkpt>
      <trkpt lat="44.99345" lon="4.47829">
        <ele>640</ele>
        <time>2015-11-30T09:52:24Z</time>
      </trkpt>
      <trkpt lat="44.99353" lon="4.47833">
        <ele>640</ele>
        <time>2015-11-30T09:52:28Z</time>
      </trkpt>
      <trkpt lat="44.99359" lon="4.47841">
        <ele>639</ele>
        <time>2015-11-30T09:52:33Z</time>
      </trkpt>
      <trkpt lat="44.99363" lon="4.47848">
        <ele>639</ele>
        <time>2015-11-30T09:52:36Z</time>
      </trkpt>
      <trkpt lat="44.9937" lon="4.47856">
        <ele>639</ele>
        <time>2015-11-30T09:52:41Z</time>
      </trkpt>
      <trkpt lat="44.99376" lon="4.47858">
        <ele>639</ele>
        <time>2015-11-30T09:52:44Z</time>
      </trkpt>
      <trkpt lat="44.99383" lon="4.47865">
        <ele>640</ele>
        <time>2015-11-30T09:52:48Z</time>
      </trkpt>
      <trkpt lat="44.9939" lon="4.47876">
        <ele>640</ele>
        <time>2015-11-30T09:52:53Z</time>
      </trkpt>
      <trkpt lat="44.99401" lon="4.47884">
        <ele>640</ele>
        <time>2015-11-30T09:52:57Z</time>
      </trkpt>
      <trkpt lat="44.99417" lon="4.47892">
        <ele>640</ele>
        <time>2015-11-30T09:53:02Z</time>
      </trkpt>
      <trkpt lat="44.99438" lon="4.47898">
        <ele>639</ele>
        <time>2015-11-30T09:53:06Z</time>
      </trkpt>
      <trkpt lat="44.99437" lon="4.47911">
        <ele>641</ele>
        <time>2015-11-30T09:53:09Z</time>
      </trkpt>
      <trkpt lat="44.99444" lon="4.47915">
        <ele>642</ele>
        <time>2015-11-30T09:53:14Z</time>
      </trkpt>
      <trkpt lat="44.99447" lon="4.47925">
        <ele>643</ele>
        <time>2015-11-30T09:53:18Z</time>
      </trkpt>
      <trkpt lat="44.99456" lon="4.47937">
        <ele>646</ele>
        <time>2015-11-30T09:53:22Z</time>
      </trkpt>
      <trkpt lat="44.99456" lon="4.47951">
        <ele>647</ele>
        <time>2015-11-30T09:53:26Z</time>
      </trkpt>
      <trkpt lat="44.99454" lon="4.47964">
        <ele>649</ele>
        <time>2015-11-30T09:53:31Z</time>
      </trkpt>
      <trkpt lat="44.99452" lon="4.47977">
        <ele>650</ele>
        <time>2015-11-30T09:53:36Z</time>
      </trkpt>
      <trkpt lat="44.99447" lon="4.4799">
        <ele>650</ele>
        <time>2015-11-30T09:53:40Z</time>
      </trkpt>
      <trkpt lat="44.99445" lon="4.48006">
        <ele>648</ele>
        <time>2015-11-30T09:53:44Z</time>
      </trkpt>
      <trkpt lat="44.99438" lon="4.48018">
        <ele>648</ele>
        <time>2015-11-30T09:53:48Z</time>
      </trkpt>
      <trkpt lat="44.99433" lon="4.48033">
        <ele>647</ele>
        <time>2015-11-30T09:53:52Z</time>
      </trkpt>
      <trkpt lat="44.99427" lon="4.48044">
        <ele>646</ele>
        <time>2015-11-30T09:53:56Z</time>
      </trkpt>
      <trkpt lat="44.99423" lon="4.48056">
        <ele>645</ele>
        <time>2015-11-30T09:54:00Z</time>
      </trkpt>
      <trkpt lat="44.99418" lon="4.48069">
        <ele>644</ele>
        <time>2015-11-30T09:54:05Z</time>
      </trkpt>
      <trkpt lat="44.99415" lon="4.48081">
        <ele>643</ele>
        <time>2015-11-30T09:54:08Z</time>
      </trkpt>
      <trkpt lat="44.99415" lon="4.48092">
        <ele>642</ele>
        <time>2015-11-30T09:54:13Z</time>
      </trkpt>
      <trkpt lat="44.99412" lon="4.48113">
        <ele>641</ele>
        <time>2015-11-30T09:54:16Z</time>
      </trkpt>
      <trkpt lat="44.9941" lon="4.48123">
        <ele>640</ele>
        <time>2015-11-30T09:54:20Z</time>
      </trkpt>
      <trkpt lat="44.99405" lon="4.48139">
        <ele>639</ele>
        <time>2015-11-30T09:54:24Z</time>
      </trkpt>
      <trkpt lat="44.99402" lon="4.48151">
        <ele>638</ele>
        <time>2015-11-30T09:54:29Z</time>
      </trkpt>
      <trkpt lat="44.99402" lon="4.48163">
        <ele>636</ele>
        <time>2015-11-30T09:54:34Z</time>
      </trkpt>
      <trkpt lat="44.99402" lon="4.48175">
        <ele>635</ele>
        <time>2015-11-30T09:54:39Z</time>
      </trkpt>
      <trkpt lat="44.994" lon="4.48184">
        <ele>634</ele>
        <time>2015-11-30T09:54:43Z</time>
      </trkpt>
      <trkpt lat="44.994" lon="4.48195">
        <ele>633</ele>
        <time>2015-11-30T09:54:47Z</time>
      </trkpt>
      <trkpt lat="44.994" lon="4.48204">
        <ele>633</ele>
        <time>2015-11-30T09:54:50Z</time>
      </trkpt>
      <trkpt lat="44.99401" lon="4.48216">
        <ele>633</ele>
        <time>2015-11-30T09:54:54Z</time>
      </trkpt>
      <trkpt lat="44.99404" lon="4.4823">
        <ele>633</ele>
        <time>2015-11-30T09:54:58Z</time>
      </trkpt>
      <trkpt lat="44.99409" lon="4.48245">
        <ele>633</ele>
        <time>2015-11-30T09:55:02Z</time>
      </trkpt>
      <trkpt lat="44.99409" lon="4.48259">
        <ele>633</ele>
        <time>2015-11-30T09:55:06Z</time>
      </trkpt>
      <trkpt lat="44.99413" lon="4.48272">
        <ele>634</ele>
        <time>2015-11-30T09:55:09Z</time>
      </trkpt>
      <trkpt lat="44.9942" lon="4.48285">
        <ele>633</ele>
        <time>2015-11-30T09:55:14Z</time>
      </trkpt>
      <trkpt lat="44.99425" lon="4.48297">
        <ele>632</ele>
        <time>2015-11-30T09:55:18Z</time>
      </trkpt>
      <trkpt lat="44.99433" lon="4.48308">
        <ele>633</ele>
        <time>2015-11-30T09:55:22Z</time>
      </trkpt>
      <trkpt lat="44.99438" lon="4.4832">
        <ele>632</ele>
        <time>2015-11-30T09:55:26Z</time>
      </trkpt>
      <trkpt lat="44.99441" lon="4.48349">
        <ele>631</ele>
        <time>2015-11-30T09:55:31Z</time>
      </trkpt>
      <trkpt lat="44.99444" lon="4.48365">
        <ele>631</ele>
        <time>2015-11-30T09:55:36Z</time>
      </trkpt>
      <trkpt lat="44.99448" lon="4.48383">
        <ele>630</ele>
        <time>2015-11-30T09:55:40Z</time>
      </trkpt>
      <trkpt lat="44.99449" lon="4.48398">
        <ele>628</ele>
        <time>2015-11-30T09:55:44Z</time>
      </trkpt>
      <trkpt lat="44.99451" lon="4.48405">
        <ele>628</ele>
        <time>2015-11-30T09:55:47Z</time>
      </trkpt>
      <trkpt lat="44.99456" lon="4.48413">
        <ele>627</ele>
        <time>2015-11-30T09:55:51Z</time>
      </trkpt>
      <trkpt lat="44.99466" lon="4.48419">
        <ele>626</ele>
        <time>2015-11-30T09:55:56Z</time>
      </trkpt>
      <trkpt lat="44.99477" lon="4.48425">
        <ele>625</ele>
        <time>2015-11-30T09:56:01Z</time>
      </trkpt>
      <trkpt lat="44.99486" lon="4.48432">
        <ele>624</ele>
        <time>2015-11-30T09:56:04Z</time>
      </trkpt>
      <trkpt lat="44.9949" lon="4.48446">
        <ele>624</ele>
        <time>2015-11-30T09:56:08Z</time>
      </trkpt>
      <trkpt lat="44.99496" lon="4.4846">
        <ele>622</ele>
        <time>2015-11-30T09:56:13Z</time>
      </trkpt>
      <trkpt lat="44.99502" lon="4.48466">
        <ele>622</ele>
        <time>2015-11-30T09:56:17Z</time>
      </trkpt>
      <trkpt lat="44.99508" lon="4.48477">
        <ele>621</ele>
        <time>2015-11-30T09:56:21Z</time>
      </trkpt>
      <trkpt lat="44.99512" lon="4.48488">
        <ele>619</ele>
        <time>2015-11-30T09:56:25Z</time>
      </trkpt>
      <trkpt lat="44.9952" lon="4.485">
        <ele>618</ele>
        <time>2015-11-30T09:56:28Z</time>
      </trkpt>
      <trkpt lat="44.99529" lon="4.48507">
        <ele>617</ele>
        <time>2015-11-30T09:56:32Z</time>
      </trkpt>
      <trkpt lat="44.9954" lon="4.48518">
        <ele>615</ele>
        <time>2015-11-30T09:56:36Z</time>
      </trkpt>
      <trkpt lat="44.99549" lon="4.48529">
        <ele>614</ele>
        <time>2015-11-30T09:56:41Z</time>
      </trkpt>
      <trkpt lat="44.99556" lon="4.48541">
        <ele>613</ele>
        <time>2015-11-30T09:56:44Z</time>
      </trkpt>
      <trkpt lat="44.99566" lon="4.4855">
        <ele>613</ele>
        <time>2015-11-30T09:56:48Z</time>
      </trkpt>
      <trkpt lat="44.99574" lon="4.48556">
        <ele>613</ele>
        <time>2015-11-30T09:56:53Z</time>
      </trkpt>
      <trkpt lat="44.99583" lon="4.4856">
        <ele>614</ele>
        <time>2015-11-30T09:56:56Z</time>
      </trkpt>
      <trkpt lat="44.99592" lon="4.48564">
        <ele>615</ele>
        <time>2015-11-30T09:57:00Z</time>
      </trkpt>
      <trkpt lat="44.99598" lon="4.48567">
        <ele>615</ele>
        <time>2015-11-30T09:57:03Z</time>
      </trkpt>
      <trkpt lat="44.99607" lon="4.48573">
        <ele>617</ele>
        <time>2015-11-30T09:57:07Z</time>
      </trkpt>
      <trkpt lat="44.99616" lon="4.48585">
        <ele>618</ele>
        <time>2015-11-30T09:57:12Z</time>
      </trkpt>
      <trkpt lat="44.99623" lon="4.48596">
        <ele>620</ele>
        <time>2015-11-30T09:57:16Z</time>
      </trkpt>
      <trkpt lat="44.99639" lon="4.48604">
        <ele>627</ele>
        <time>2015-11-30T09:57:20Z</time>
      </trkpt>
      <trkpt lat="44.99638" lon="4.48615">
        <ele>627</ele>
        <time>2015-11-30T09:57:24Z</time>
      </trkpt>
      <trkpt lat="44.99638" lon="4.48627">
        <ele>626</ele>
        <time>2015-11-30T09:57:29Z</time>
      </trkpt>
      <trkpt lat="44.99637" lon="4.48638">
        <ele>626</ele>
        <time>2015-11-30T09:57:32Z</time>
      </trkpt>
      <trkpt lat="44.99635" lon="4.48651">
        <ele>626</ele>
        <time>2015-11-30T09:57:36Z</time>
      </trkpt>
      <trkpt lat="44.99634" lon="4.48664">
        <ele>625</ele>
        <time>2015-11-30T09:57:40Z</time>
      </trkpt>
      <trkpt lat="44.99634" lon="4.48679">
        <ele>625</ele>
        <time>2015-11-30T09:57:44Z</time>
      </trkpt>
      <trkpt lat="44.99635" lon="4.48691">
        <ele>625</ele>
        <time>2015-11-30T09:57:47Z</time>
      </trkpt>
      <trkpt lat="44.99637" lon="4.48708">
        <ele>625</ele>
        <time>2015-11-30T09:57:52Z</time>
      </trkpt>
      <trkpt lat="44.99635" lon="4.48729">
        <ele>626</ele>
        <time>2015-11-30T09:57:56Z</time>
      </trkpt>
      <trkpt lat="44.99638" lon="4.48744">
        <ele>627</ele>
        <time>2015-11-30T09:58:00Z</time>
      </trkpt>
      <trkpt lat="44.99639" lon="4.48759">
        <ele>626</ele>
        <time>2015-11-30T09:58:04Z</time>
      </trkpt>
      <trkpt lat="44.99641" lon="4.48775">
        <ele>627</ele>
        <time>2015-11-30T09:58:08Z</time>
      </trkpt>
      <trkpt lat="44.99642" lon="4.48788">
        <ele>627</ele>
        <time>2015-11-30T09:58:12Z</time>
      </trkpt>
      <trkpt lat="44.99644" lon="4.48802">
        <ele>627</ele>
        <time>2015-11-30T09:58:16Z</time>
      </trkpt>
      <trkpt lat="44.99647" lon="4.48816">
        <ele>628</ele>
        <time>2015-11-30T09:58:20Z</time>
      </trkpt>
      <trkpt lat="44.99646" lon="4.48831">
        <ele>627</ele>
        <time>2015-11-30T09:58:24Z</time>
      </trkpt>
      <trkpt lat="44.99646" lon="4.48845">
        <ele>627</ele>
        <time>2015-11-30T09:58:28Z</time>
      </trkpt>
      <trkpt lat="44.99652" lon="4.4886">
        <ele>627</ele>
        <time>2015-11-30T09:58:32Z</time>
      </trkpt>
      <trkpt lat="44.99658" lon="4.48877">
        <ele>630</ele>
        <time>2015-11-30T09:58:36Z</time>
      </trkpt>
      <trkpt lat="44.99661" lon="4.48897">
        <ele>631</ele>
        <time>2015-11-30T09:58:41Z</time>
      </trkpt>
      <trkpt lat="44.99664" lon="4.48909">
        <ele>632</ele>
        <time>2015-11-30T09:58:44Z</time>
      </trkpt>
      <trkpt lat="44.99667" lon="4.48927">
        <ele>632</ele>
        <time>2015-11-30T09:58:49Z</time>
      </trkpt>
      <trkpt lat="44.99669" lon="4.48943">
        <ele>633</ele>
        <time>2015-11-30T09:58:53Z</time>
      </trkpt>
      <trkpt lat="44.99674" lon="4.48963">
        <ele>635</ele>
        <time>2015-11-30T09:58:58Z</time>
      </trkpt>
      <trkpt lat="44.99677" lon="4.48982">
        <ele>636</ele>
        <time>2015-11-30T09:59:03Z</time>
      </trkpt>
      <trkpt lat="44.99679" lon="4.48992">
        <ele>637</ele>
        <time>2015-11-30T09:59:06Z</time>
      </trkpt>
      <trkpt lat="44.99683" lon="4.4901">
        <ele>637</ele>
        <time>2015-11-30T09:59:11Z</time>
      </trkpt>
      <trkpt lat="44.99686" lon="4.49021">
        <ele>638</ele>
        <time>2015-11-30T09:59:14Z</time>
      </trkpt>
      <trkpt lat="44.99688" lon="4.49035">
        <ele>638</ele>
        <time>2015-11-30T09:59:18Z</time>
      </trkpt>
      <trkpt lat="44.99687" lon="4.49051">
        <ele>638</ele>
        <time>2015-11-30T09:59:22Z</time>
      </trkpt>
      <trkpt lat="44.99687" lon="4.49063">
        <ele>637</ele>
        <time>2015-11-30T09:59:26Z</time>
      </trkpt>
      <trkpt lat="44.99686" lon="4.49078">
        <ele>637</ele>
        <time>2015-11-30T09:59:31Z</time>
      </trkpt>
      <trkpt lat="44.99685" lon="4.49097">
        <ele>636</ele>
        <time>2015-11-30T09:59:36Z</time>
      </trkpt>
      <trkpt lat="44.99682" lon="4.49111">
        <ele>635</ele>
        <time>2015-11-30T09:59:40Z</time>
      </trkpt>
      <trkpt lat="44.99679" lon="4.49128">
        <ele>634</ele>
        <time>2015-11-30T09:59:45Z</time>
      </trkpt>
      <trkpt lat="44.99676" lon="4.49136">
        <ele>633</ele>
        <time>2015-11-30T09:59:48Z</time>
      </trkpt>
      <trkpt lat="44.99674" lon="4.49149">
        <ele>632</ele>
        <time>2015-11-30T09:59:53Z</time>
      </trkpt>
      <trkpt lat="44.99673" lon="4.49169">
        <ele>630</ele>
        <time>2015-11-30T09:59:58Z</time>
      </trkpt>
      <trkpt lat="44.99672" lon="4.49181">
        <ele>629</ele>
        <time>2015-11-30T10:00:02Z</time>
      </trkpt>
      <trkpt lat="44.9967" lon="4.49197">
        <ele>628</ele>
        <time>2015-11-30T10:00:06Z</time>
      </trkpt>
      <trkpt lat="44.9967" lon="4.49208">
        <ele>627</ele>
        <time>2015-11-30T10:00:09Z</time>
      </trkpt>
      <trkpt lat="44.99669" lon="4.49221">
        <ele>626</ele>
        <time>2015-11-30T10:00:13Z</time>
      </trkpt>
      <trkpt lat="44.99666" lon="4.49241">
        <ele>625</ele>
        <time>2015-11-30T10:00:18Z</time>
      </trkpt>
      <trkpt lat="44.99662" lon="4.49257">
        <ele>625</ele>
        <time>2015-11-30T10:00:23Z</time>
      </trkpt>
      <trkpt lat="44.99656" lon="4.49273">
        <ele>624</ele>
        <time>2015-11-30T10:00:28Z</time>
      </trkpt>
      <trkpt lat="44.9965" lon="4.49282">
        <ele>624</ele>
        <time>2015-11-30T10:00:32Z</time>
      </trkpt>
      <trkpt lat="44.99646" lon="4.49289">
        <ele>624</ele>
        <time>2015-11-30T10:00:36Z</time>
      </trkpt>
      <trkpt lat="44.99645" lon="4.49302">
        <ele>624</ele>
        <time>2015-11-30T10:00:41Z</time>
      </trkpt>
      <trkpt lat="44.99645" lon="4.49316">
        <ele>623</ele>
        <time>2015-11-30T10:00:44Z</time>
      </trkpt>
      <trkpt lat="44.99646" lon="4.49329">
        <ele>623</ele>
        <time>2015-11-30T10:00:48Z</time>
      </trkpt>
      <trkpt lat="44.99651" lon="4.49337">
        <ele>622</ele>
        <time>2015-11-30T10:00:53Z</time>
      </trkpt>
      <trkpt lat="44.99654" lon="4.49349">
        <ele>622</ele>
        <time>2015-11-30T10:00:58Z</time>
      </trkpt>
      <trkpt lat="44.99657" lon="4.49359">
        <ele>621</ele>
        <time>2015-11-30T10:01:03Z</time>
      </trkpt>
      <trkpt lat="44.9966" lon="4.49372">
        <ele>620</ele>
        <time>2015-11-30T10:01:08Z</time>
      </trkpt>
      <trkpt lat="44.99663" lon="4.49381">
        <ele>620</ele>
        <time>2015-11-30T10:01:12Z</time>
      </trkpt>
      <trkpt lat="44.99665" lon="4.49394">
        <ele>619</ele>
        <time>2015-11-30T10:01:17Z</time>
      </trkpt>
      <trkpt lat="44.99666" lon="4.49403">
        <ele>619</ele>
        <time>2015-11-30T10:01:21Z</time>
      </trkpt>
      <trkpt lat="44.99669" lon="4.49414">
        <ele>618</ele>
        <time>2015-11-30T10:01:25Z</time>
      </trkpt>
      <trkpt lat="44.99673" lon="4.4943">
        <ele>618</ele>
        <time>2015-11-30T10:01:30Z</time>
      </trkpt>
      <trkpt lat="44.99675" lon="4.49442">
        <ele>617</ele>
        <time>2015-11-30T10:01:34Z</time>
      </trkpt>
      <trkpt lat="44.99676" lon="4.49461">
        <ele>616</ele>
        <time>2015-11-30T10:01:38Z</time>
      </trkpt>
      <trkpt lat="44.99675" lon="4.49476">
        <ele>614</ele>
        <time>2015-11-30T10:01:42Z</time>
      </trkpt>
      <trkpt lat="44.99672" lon="4.49488">
        <ele>612</ele>
        <time>2015-11-30T10:01:46Z</time>
      </trkpt>
      <trkpt lat="44.99666" lon="4.495">
        <ele>612</ele>
        <time>2015-11-30T10:01:50Z</time>
      </trkpt>
      <trkpt lat="44.99661" lon="4.4951">
        <ele>611</ele>
        <time>2015-11-30T10:01:54Z</time>
      </trkpt>
      <trkpt lat="44.99655" lon="4.49527">
        <ele>610</ele>
        <time>2015-11-30T10:01:59Z</time>
      </trkpt>
      <trkpt lat="44.99648" lon="4.49533">
        <ele>608</ele>
        <time>2015-11-30T10:02:04Z</time>
      </trkpt>
      <trkpt lat="44.99643" lon="4.49546">
        <ele>607</ele>
        <time>2015-11-30T10:02:08Z</time>
      </trkpt>
      <trkpt lat="44.9964" lon="4.49557">
        <ele>606</ele>
        <time>2015-11-30T10:02:12Z</time>
      </trkpt>
      <trkpt lat="44.99635" lon="4.49568">
        <ele>604</ele>
        <time>2015-11-30T10:02:15Z</time>
      </trkpt>
      <trkpt lat="44.99628" lon="4.49581">
        <ele>603</ele>
        <time>2015-11-30T10:02:20Z</time>
      </trkpt>
      <trkpt lat="44.99622" lon="4.49589">
        <ele>602</ele>
        <time>2015-11-30T10:02:25Z</time>
      </trkpt>
      <trkpt lat="44.99618" lon="4.49597">
        <ele>601</ele>
        <time>2015-11-30T10:02:28Z</time>
      </trkpt>
      <trkpt lat="44.99613" lon="4.49607">
        <ele>599</ele>
        <time>2015-11-30T10:02:34Z</time>
      </trkpt>
      <trkpt lat="44.99609" lon="4.49617">
        <ele>597</ele>
        <time>2015-11-30T10:02:40Z</time>
      </trkpt>
      <trkpt lat="44.99607" lon="4.49629">
        <ele>595</ele>
        <time>2015-11-30T10:02:46Z</time>
      </trkpt>
      <trkpt lat="44.99606" lon="4.4964">
        <ele>592</ele>
        <time>2015-11-30T10:02:59Z</time>
      </trkpt>
      <trkpt lat="44.99607" lon="4.49645">
        <ele>590</ele>
        <time>2015-11-30T10:03:09Z</time>
      </trkpt>
      <trkpt lat="44.99607" lon="4.4966">
        <ele>589</ele>
        <time>2015-11-30T10:03:14Z</time>
      </trkpt>
      <trkpt lat="44.99606" lon="4.49669">
        <ele>588</ele>
        <time>2015-11-30T10:03:19Z</time>
      </trkpt>
      <trkpt lat="44.99606" lon="4.49682">
        <ele>588</ele>
        <time>2015-11-30T10:03:24Z</time>
      </trkpt>
      <trkpt lat="44.99606" lon="4.49695">
        <ele>587</ele>
        <time>2015-11-30T10:03:29Z</time>
      </trkpt>
      <trkpt lat="44.99608" lon="4.49704">
        <ele>586</ele>
        <time>2015-11-30T10:03:33Z</time>
      </trkpt>
      <trkpt lat="44.99611" lon="4.49715">
        <ele>585</ele>
        <time>2015-11-30T10:03:38Z</time>
      </trkpt>
      <trkpt lat="44.99614" lon="4.49725">
        <ele>585</ele>
        <time>2015-11-30T10:03:43Z</time>
      </trkpt>
      <trkpt lat="44.99617" lon="4.49735">
        <ele>584</ele>
        <time>2015-11-30T10:03:47Z</time>
      </trkpt>
      <trkpt lat="44.99618" lon="4.49746">
        <ele>583</ele>
        <time>2015-11-30T10:03:51Z</time>
      </trkpt>
      <trkpt lat="44.99617" lon="4.49755">
        <ele>582</ele>
        <time>2015-11-30T10:03:55Z</time>
      </trkpt>
      <trkpt lat="44.99617" lon="4.49766">
        <ele>580</ele>
        <time>2015-11-30T10:04:00Z</time>
      </trkpt>
      <trkpt lat="44.99617" lon="4.49778">
        <ele>579</ele>
        <time>2015-11-30T10:04:06Z</time>
      </trkpt>
      <trkpt lat="44.99618" lon="4.49787">
        <ele>577</ele>
        <time>2015-11-30T10:04:11Z</time>
      </trkpt>
      <trkpt lat="44.99616" lon="4.49799">
        <ele>575</ele>
        <time>2015-11-30T10:04:19Z</time>
      </trkpt>
      <trkpt lat="44.99612" lon="4.49818">
        <ele>571</ele>
        <time>2015-11-30T10:04:23Z</time>
      </trkpt>
      <trkpt lat="44.9961" lon="4.49836">
        <ele>568</ele>
        <time>2015-11-30T10:04:28Z</time>
      </trkpt>
      <trkpt lat="44.99608" lon="4.49846">
        <ele>567</ele>
        <time>2015-11-30T10:04:33Z</time>
      </trkpt>
      <trkpt lat="44.99608" lon="4.49854">
        <ele>565</ele>
        <time>2015-11-30T10:04:36Z</time>
      </trkpt>
      <trkpt lat="44.99609" lon="4.49864">
        <ele>564</ele>
        <time>2015-11-30T10:04:40Z</time>
      </trkpt>
      <trkpt lat="44.99609" lon="4.49876">
        <ele>562</ele>
        <time>2015-11-30T10:04:44Z</time>
      </trkpt>
      <trkpt lat="44.99609" lon="4.49891">
        <ele>560</ele>
        <time>2015-11-30T10:04:49Z</time>
      </trkpt>
      <trkpt lat="44.99605" lon="4.49903">
        <ele>558</ele>
        <time>2015-11-30T10:04:54Z</time>
      </trkpt>
      <trkpt lat="44.99603" lon="4.49914">
        <ele>556</ele>
        <time>2015-11-30T10:04:57Z</time>
      </trkpt>
      <trkpt lat="44.99601" lon="4.49925">
        <ele>554</ele>
        <time>2015-11-30T10:05:01Z</time>
      </trkpt>
      <trkpt lat="44.99601" lon="4.49933">
        <ele>553</ele>
        <time>2015-11-30T10:05:05Z</time>
      </trkpt>
      <trkpt lat="44.99601" lon="4.49946">
        <ele>551</ele>
        <time>2015-11-30T10:05:09Z</time>
      </trkpt>
      <trkpt lat="44.99603" lon="4.49957">
        <ele>549</ele>
        <time>2015-11-30T10:05:14Z</time>
      </trkpt>
      <trkpt lat="44.99603" lon="4.49967">
        <ele>548</ele>
        <time>2015-11-30T10:05:18Z</time>
      </trkpt>
      <trkpt lat="44.99603" lon="4.49978">
        <ele>546</ele>
        <time>2015-11-30T10:05:25Z</time>
      </trkpt>
      <trkpt lat="44.99606" lon="4.49988">
        <ele>544</ele>
        <time>2015-11-30T10:05:33Z</time>
      </trkpt>
      <trkpt lat="44.99609" lon="4.49999">
        <ele>542</ele>
        <time>2015-11-30T10:05:42Z</time>
      </trkpt>
      <trkpt lat="44.9961" lon="4.5001">
        <ele>540</ele>
        <time>2015-11-30T10:05:52Z</time>
      </trkpt>
      <trkpt lat="44.9961" lon="4.50023">
        <ele>537</ele>
        <time>2015-11-30T10:06:01Z</time>
      </trkpt>
      <trkpt lat="44.99611" lon="4.50034">
        <ele>534</ele>
        <time>2015-11-30T10:06:13Z</time>
      </trkpt>
      <trkpt lat="44.99608" lon="4.50045">
        <ele>533</ele>
        <time>2015-11-30T10:06:24Z</time>
      </trkpt>
      <trkpt lat="44.99606" lon="4.50056">
        <ele>531</ele>
        <time>2015-11-30T10:06:31Z</time>
      </trkpt>
      <trkpt lat="44.99602" lon="4.50063">
        <ele>531</ele>
        <time>2015-11-30T10:06:36Z</time>
      </trkpt>
      <trkpt lat="44.99598" lon="4.50073">
        <ele>530</ele>
        <time>2015-11-30T10:06:42Z</time>
      </trkpt>
      <trkpt lat="44.99595" lon="4.50085">
        <ele>529</ele>
        <time>2015-11-30T10:06:47Z</time>
      </trkpt>
      <trkpt lat="44.99592" lon="4.50096">
        <ele>528</ele>
        <time>2015-11-30T10:06:53Z</time>
      </trkpt>
      <trkpt lat="44.99589" lon="4.50106">
        <ele>529</ele>
        <time>2015-11-30T10:06:58Z</time>
      </trkpt>
      <trkpt lat="44.99588" lon="4.50117">
        <ele>529</ele>
        <time>2015-11-30T10:07:03Z</time>
      </trkpt>
      <trkpt lat="44.99587" lon="4.50126">
        <ele>529</ele>
        <time>2015-11-30T10:07:07Z</time>
      </trkpt>
      <trkpt lat="44.99586" lon="4.50139">
        <ele>529</ele>
        <time>2015-11-30T10:07:12Z</time>
      </trkpt>
      <trkpt lat="44.99585" lon="4.50149">
        <ele>530</ele>
        <time>2015-11-30T10:07:16Z</time>
      </trkpt>
      <trkpt lat="44.99586" lon="4.50159">
        <ele>530</ele>
        <time>2015-11-30T10:07:22Z</time>
      </trkpt>
      <trkpt lat="44.99584" lon="4.50171">
        <ele>531</ele>
        <time>2015-11-30T10:07:28Z</time>
      </trkpt>
      <trkpt lat="44.99581" lon="4.50182">
        <ele>531</ele>
        <time>2015-11-30T10:07:34Z</time>
      </trkpt>
      <trkpt lat="44.99572" lon="4.50203">
        <ele>531</ele>
        <time>2015-11-30T10:07:39Z</time>
      </trkpt>
      <trkpt lat="44.99566" lon="4.50212">
        <ele>530</ele>
        <time>2015-11-30T10:07:44Z</time>
      </trkpt>
      <trkpt lat="44.9956" lon="4.50222">
        <ele>530</ele>
        <time>2015-11-30T10:07:49Z</time>
      </trkpt>
      <trkpt lat="44.99555" lon="4.50228">
        <ele>529</ele>
        <time>2015-11-30T10:07:54Z</time>
      </trkpt>
      <trkpt lat="44.99551" lon="4.50235">
        <ele>528</ele>
        <time>2015-11-30T10:07:57Z</time>
      </trkpt>
      <trkpt lat="44.99546" lon="4.50241">
        <ele>528</ele>
        <time>2015-11-30T10:08:02Z</time>
      </trkpt>
      <trkpt lat="44.99539" lon="4.50248">
        <ele>528</ele>
        <time>2015-11-30T10:08:06Z</time>
      </trkpt>
      <trkpt lat="44.99539" lon="4.5026">
        <ele>527</ele>
        <time>2015-11-30T10:08:12Z</time>
      </trkpt>
      <trkpt lat="44.99541" lon="4.50275">
        <ele>528</ele>
        <time>2015-11-30T10:08:17Z</time>
      </trkpt>
      <trkpt lat="44.99544" lon="4.50286">
        <ele>528</ele>
        <time>2015-11-30T10:08:22Z</time>
      </trkpt>
      <trkpt lat="44.99546" lon="4.50297">
        <ele>527</ele>
        <time>2015-11-30T10:08:29Z</time>
      </trkpt>
      <trkpt lat="44.99548" lon="4.50305">
        <ele>526</ele>
        <time>2015-11-30T10:08:33Z</time>
      </trkpt>
      <trkpt lat="44.99548" lon="4.50316">
        <ele>525</ele>
        <time>2015-11-30T10:08:38Z</time>
      </trkpt>
      <trkpt lat="44.99546" lon="4.50325">
        <ele>525</ele>
        <time>2015-11-30T10:08:42Z</time>
      </trkpt>
      <trkpt lat="44.99547" lon="4.50337">
        <ele>525</ele>
        <time>2015-11-30T10:08:46Z</time>
      </trkpt>
      <trkpt lat="44.99548" lon="4.50347">
        <ele>525</ele>
        <time>2015-11-30T10:08:50Z</time>
      </trkpt>
      <trkpt lat="44.99545" lon="4.5036">
        <ele>525</ele>
        <time>2015-11-30T10:08:54Z</time>
      </trkpt>
      <trkpt lat="44.99545" lon="4.50372">
        <ele>524</ele>
        <time>2015-11-30T10:08:59Z</time>
      </trkpt>
      <trkpt lat="44.99544" lon="4.5038">
        <ele>524</ele>
        <time>2015-11-30T10:09:02Z</time>
      </trkpt>
      <trkpt lat="44.99544" lon="4.5039">
        <ele>524</ele>
        <time>2015-11-30T10:09:07Z</time>
      </trkpt>
      <trkpt lat="44.99543" lon="4.50399">
        <ele>523</ele>
        <time>2015-11-30T10:09:11Z</time>
      </trkpt>
      <trkpt lat="44.9954" lon="4.50406">
        <ele>523</ele>
        <time>2015-11-30T10:09:15Z</time>
      </trkpt>
      <trkpt lat="44.99536" lon="4.5042">
        <ele>522</ele>
        <time>2015-11-30T10:09:20Z</time>
      </trkpt>
      <trkpt lat="44.9953" lon="4.50432">
        <ele>521</ele>
        <time>2015-11-30T10:09:24Z</time>
      </trkpt>
      <trkpt lat="44.99525" lon="4.50438">
        <ele>521</ele>
        <time>2015-11-30T10:09:27Z</time>
      </trkpt>
      <trkpt lat="44.99518" lon="4.50449">
        <ele>520</ele>
        <time>2015-11-30T10:09:32Z</time>
      </trkpt>
      <trkpt lat="44.99512" lon="4.5046">
        <ele>519</ele>
        <time>2015-11-30T10:09:36Z</time>
      </trkpt>
      <trkpt lat="44.99506" lon="4.50472">
        <ele>517</ele>
        <time>2015-11-30T10:09:40Z</time>
      </trkpt>
      <trkpt lat="44.99501" lon="4.50484">
        <ele>516</ele>
        <time>2015-11-30T10:09:44Z</time>
      </trkpt>
      <trkpt lat="44.99496" lon="4.50492">
        <ele>515</ele>
        <time>2015-11-30T10:09:48Z</time>
      </trkpt>
      <trkpt lat="44.99488" lon="4.50505">
        <ele>514</ele>
        <time>2015-11-30T10:09:53Z</time>
      </trkpt>
      <trkpt lat="44.99483" lon="4.50515">
        <ele>513</ele>
        <time>2015-11-30T10:09:58Z</time>
      </trkpt>
      <trkpt lat="44.9948" lon="4.50523">
        <ele>512</ele>
        <time>2015-11-30T10:10:01Z</time>
      </trkpt>
      <trkpt lat="44.99472" lon="4.50537">
        <ele>511</ele>
        <time>2015-11-30T10:10:06Z</time>
      </trkpt>
      <trkpt lat="44.99467" lon="4.50544">
        <ele>510</ele>
        <time>2015-11-30T10:10:11Z</time>
      </trkpt>
      <trkpt lat="44.99461" lon="4.50558">
        <ele>506</ele>
        <time>2015-11-30T10:10:15Z</time>
      </trkpt>
      <trkpt lat="44.99452" lon="4.50584">
        <ele>504</ele>
        <time>2015-11-30T10:10:19Z</time>
      </trkpt>
      <trkpt lat="44.99446" lon="4.50596">
        <ele>504</ele>
        <time>2015-11-30T10:10:22Z</time>
      </trkpt>
      <trkpt lat="44.9944" lon="4.50609">
        <ele>504</ele>
        <time>2015-11-30T10:10:27Z</time>
      </trkpt>
      <trkpt lat="44.99432" lon="4.50621">
        <ele>504</ele>
        <time>2015-11-30T10:10:31Z</time>
      </trkpt>
      <trkpt lat="44.99427" lon="4.50626">
        <ele>504</ele>
        <time>2015-11-30T10:10:37Z</time>
      </trkpt>
      <trkpt lat="44.99422" lon="4.50636">
        <ele>503</ele>
        <time>2015-11-30T10:10:41Z</time>
      </trkpt>
      <trkpt lat="44.99416" lon="4.50656">
        <ele>503</ele>
        <time>2015-11-30T10:10:45Z</time>
      </trkpt>
      <trkpt lat="44.99414" lon="4.50665">
        <ele>502</ele>
        <time>2015-11-30T10:10:49Z</time>
      </trkpt>
      <trkpt lat="44.99413" lon="4.50684">
        <ele>502</ele>
        <time>2015-11-30T10:10:54Z</time>
      </trkpt>
      <trkpt lat="44.99417" lon="4.50698">
        <ele>501</ele>
        <time>2015-11-30T10:10:58Z</time>
      </trkpt>
      <trkpt lat="44.99421" lon="4.50709">
        <ele>500</ele>
        <time>2015-11-30T10:11:02Z</time>
      </trkpt>
      <trkpt lat="44.99424" lon="4.50724">
        <ele>499</ele>
        <time>2015-11-30T10:11:06Z</time>
      </trkpt>
      <trkpt lat="44.99427" lon="4.50738">
        <ele>498</ele>
        <time>2015-11-30T10:11:09Z</time>
      </trkpt>
      <trkpt lat="44.9943" lon="4.50763">
        <ele>497</ele>
        <time>2015-11-30T10:11:14Z</time>
      </trkpt>
      <trkpt lat="44.99432" lon="4.50774">
        <ele>496</ele>
        <time>2015-11-30T10:11:17Z</time>
      </trkpt>
      <trkpt lat="44.99436" lon="4.50791">
        <ele>495</ele>
        <time>2015-11-30T10:11:21Z</time>
      </trkpt>
      <trkpt lat="44.9944" lon="4.50812">
        <ele>493</ele>
        <time>2015-11-30T10:11:26Z</time>
      </trkpt>
      <trkpt lat="44.99442" lon="4.50834">
        <ele>492</ele>
        <time>2015-11-30T10:11:29Z</time>
      </trkpt>
      <trkpt lat="44.99441" lon="4.50869">
        <ele>491</ele>
        <time>2015-11-30T10:11:33Z</time>
      </trkpt>
      <trkpt lat="44.99442" lon="4.50889">
        <ele>490</ele>
        <time>2015-11-30T10:11:37Z</time>
      </trkpt>
      <trkpt lat="44.99443" lon="4.5091">
        <ele>488</ele>
        <time>2015-11-30T10:11:41Z</time>
      </trkpt>
      <trkpt lat="44.99446" lon="4.5093">
        <ele>487</ele>
        <time>2015-11-30T10:11:44Z</time>
      </trkpt>
      <trkpt lat="44.99452" lon="4.50943">
        <ele>485</ele>
        <time>2015-11-30T10:11:48Z</time>
      </trkpt>
      <trkpt lat="44.99457" lon="4.50964">
        <ele>484</ele>
        <time>2015-11-30T10:11:53Z</time>
      </trkpt>
      <trkpt lat="44.9946" lon="4.50983">
        <ele>483</ele>
        <time>2015-11-30T10:11:57Z</time>
      </trkpt>
      <trkpt lat="44.99467" lon="4.5099">
        <ele>481</ele>
        <time>2015-11-30T10:12:01Z</time>
      </trkpt>
      <trkpt lat="44.99472" lon="4.51001">
        <ele>480</ele>
        <time>2015-11-30T10:12:05Z</time>
      </trkpt>
      <trkpt lat="44.99475" lon="4.51011">
        <ele>478</ele>
        <time>2015-11-30T10:12:12Z</time>
      </trkpt>
      <trkpt lat="44.99475" lon="4.5102">
        <ele>476</ele>
        <time>2015-11-30T10:12:16Z</time>
      </trkpt>
      <trkpt lat="44.99477" lon="4.5103">
        <ele>474</ele>
        <time>2015-11-30T10:12:22Z</time>
      </trkpt>
      <trkpt lat="44.99483" lon="4.51041">
        <ele>471</ele>
        <time>2015-11-30T10:12:26Z</time>
      </trkpt>
      <trkpt lat="44.9949" lon="4.51047">
        <ele>467</ele>
        <time>2015-11-30T10:12:31Z</time>
      </trkpt>
      <trkpt lat="44.99495" lon="4.5106">
        <ele>464</ele>
        <time>2015-11-30T10:12:36Z</time>
      </trkpt>
      <trkpt lat="44.99502" lon="4.51066">
        <ele>461</ele>
        <time>2015-11-30T10:12:40Z</time>
      </trkpt>
      <trkpt lat="44.99507" lon="4.51077">
        <ele>458</ele>
        <time>2015-11-30T10:12:46Z</time>
      </trkpt>
      <trkpt lat="44.9951" lon="4.51086">
        <ele>456</ele>
        <time>2015-11-30T10:12:50Z</time>
      </trkpt>
      <trkpt lat="44.99514" lon="4.51095">
        <ele>453</ele>
        <time>2015-11-30T10:12:54Z</time>
      </trkpt>
      <trkpt lat="44.99546" lon="4.51132">
        <ele>445</ele>
        <time>2015-11-30T10:12:59Z</time>
      </trkpt>
      <trkpt lat="44.99552" lon="4.51143">
        <ele>446</ele>
        <time>2015-11-30T10:13:04Z</time>
      </trkpt>
      <trkpt lat="44.99558" lon="4.5115">
        <ele>445</ele>
        <time>2015-11-30T10:13:08Z</time>
      </trkpt>
      <trkpt lat="44.99564" lon="4.51164">
        <ele>444</ele>
        <time>2015-11-30T10:13:13Z</time>
      </trkpt>
      <trkpt lat="44.9957" lon="4.51172">
        <ele>442</ele>
        <time>2015-11-30T10:13:17Z</time>
      </trkpt>
      <trkpt lat="44.99575" lon="4.51178">
        <ele>441</ele>
        <time>2015-11-30T10:13:20Z</time>
      </trkpt>
      <trkpt lat="44.99582" lon="4.51184">
        <ele>440</ele>
        <time>2015-11-30T10:13:24Z</time>
      </trkpt>
      <trkpt lat="44.99589" lon="4.51194">
        <ele>439</ele>
        <time>2015-11-30T10:13:28Z</time>
      </trkpt>
      <trkpt lat="44.99598" lon="4.51199">
        <ele>438</ele>
        <time>2015-11-30T10:13:32Z</time>
      </trkpt>
      <trkpt lat="44.99606" lon="4.51196">
        <ele>438</ele>
        <time>2015-11-30T10:13:36Z</time>
      </trkpt>
      <trkpt lat="44.99613" lon="4.51199">
        <ele>437</ele>
        <time>2015-11-30T10:13:39Z</time>
      </trkpt>
      <trkpt lat="44.99619" lon="4.51198">
        <ele>436</ele>
        <time>2015-11-30T10:13:42Z</time>
      </trkpt>
      <trkpt lat="44.99625" lon="4.51206">
        <ele>435</ele>
        <time>2015-11-30T10:13:46Z</time>
      </trkpt>
      <trkpt lat="44.99627" lon="4.51221">
        <ele>434</ele>
        <time>2015-11-30T10:13:51Z</time>
      </trkpt>
      <trkpt lat="44.99626" lon="4.5123">
        <ele>428</ele>
        <time>2015-11-30T10:14:04Z</time>
      </trkpt>
      <trkpt lat="44.99642" lon="4.51238">
        <ele>427</ele>
        <time>2015-11-30T10:14:09Z</time>
      </trkpt>
      <trkpt lat="44.9964" lon="4.51264">
        <ele>424</ele>
        <time>2015-11-30T10:14:13Z</time>
      </trkpt>
      <trkpt lat="44.99636" lon="4.51289">
        <ele>421</ele>
        <time>2015-11-30T10:14:17Z</time>
      </trkpt>
      <trkpt lat="44.99632" lon="4.51318">
        <ele>418</ele>
        <time>2015-11-30T10:14:22Z</time>
      </trkpt>
      <trkpt lat="44.99628" lon="4.51337">
        <ele>416</ele>
        <time>2015-11-30T10:14:27Z</time>
      </trkpt>
      <trkpt lat="44.99624" lon="4.51353">
        <ele>415</ele>
        <time>2015-11-30T10:14:31Z</time>
      </trkpt>
      <trkpt lat="44.99619" lon="4.51376">
        <ele>413</ele>
        <time>2015-11-30T10:14:36Z</time>
      </trkpt>
      <trkpt lat="44.99615" lon="4.51391">
        <ele>411</ele>
        <time>2015-11-30T10:14:40Z</time>
      </trkpt>
      <trkpt lat="44.99611" lon="4.5141">
        <ele>409</ele>
        <time>2015-11-30T10:14:45Z</time>
      </trkpt>
      <trkpt lat="44.99606" lon="4.51424">
        <ele>408</ele>
        <time>2015-11-30T10:14:49Z</time>
      </trkpt>
      <trkpt lat="44.99597" lon="4.51434">
        <ele>407</ele>
        <time>2015-11-30T10:14:53Z</time>
      </trkpt>
      <trkpt lat="44.99587" lon="4.51458">
        <ele>413</ele>
        <time>2015-11-30T10:14:57Z</time>
      </trkpt>
      <trkpt lat="44.99579" lon="4.51463">
        <ele>415</ele>
        <time>2015-11-30T10:15:01Z</time>
      </trkpt>
      <trkpt lat="44.99569" lon="4.51464">
        <ele>416</ele>
        <time>2015-11-30T10:15:06Z</time>
      </trkpt>
      <trkpt lat="44.99561" lon="4.51464">
        <ele>416</ele>
        <time>2015-11-30T10:15:10Z</time>
      </trkpt>
      <trkpt lat="44.99553" lon="4.51468">
        <ele>415</ele>
        <time>2015-11-30T10:15:14Z</time>
      </trkpt>
      <trkpt lat="44.99547" lon="4.51473">
        <ele>414</ele>
        <time>2015-11-30T10:15:17Z</time>
      </trkpt>
      <trkpt lat="44.99544" lon="4.51483">
        <ele>413</ele>
        <time>2015-11-30T10:15:22Z</time>
      </trkpt>
      <trkpt lat="44.99539" lon="4.51493">
        <ele>412</ele>
        <time>2015-11-30T10:15:28Z</time>
      </trkpt>
      <trkpt lat="44.99537" lon="4.515">
        <ele>411</ele>
        <time>2015-11-30T10:15:31Z</time>
      </trkpt>
      <trkpt lat="44.99535" lon="4.51512">
        <ele>410</ele>
        <time>2015-11-30T10:15:36Z</time>
      </trkpt>
      <trkpt lat="44.99535" lon="4.5152">
        <ele>409</ele>
        <time>2015-11-30T10:15:39Z</time>
      </trkpt>
      <trkpt lat="44.99534" lon="4.51533">
        <ele>407</ele>
        <time>2015-11-30T10:15:44Z</time>
      </trkpt>
      <trkpt lat="44.99533" lon="4.51543">
        <ele>406</ele>
        <time>2015-11-30T10:15:51Z</time>
      </trkpt>
      <trkpt lat="44.99527" lon="4.51551">
        <ele>405</ele>
        <time>2015-11-30T10:15:57Z</time>
      </trkpt>
      <trkpt lat="44.99526" lon="4.51562">
        <ele>405</ele>
        <time>2015-11-30T10:16:03Z</time>
      </trkpt>
      <trkpt lat="44.99525" lon="4.51571">
        <ele>405</ele>
        <time>2015-11-30T10:16:08Z</time>
      </trkpt>
      <trkpt lat="44.99521" lon="4.51581">
        <ele>405</ele>
        <time>2015-11-30T10:16:13Z</time>
      </trkpt>
      <trkpt lat="44.99521" lon="4.51592">
        <ele>406</ele>
        <time>2015-11-30T10:16:17Z</time>
      </trkpt>
      <trkpt lat="44.99519" lon="4.51602">
        <ele>405</ele>
        <time>2015-11-30T10:16:21Z</time>
      </trkpt>
      <trkpt lat="44.99517" lon="4.51607">
        <ele>404</ele>
        <time>2015-11-30T10:16:25Z</time>
      </trkpt>
      <trkpt lat="44.99512" lon="4.51613">
        <ele>404</ele>
        <time>2015-11-30T10:16:29Z</time>
      </trkpt>
      <trkpt lat="44.99512" lon="4.51613">
        <ele>404</ele>
        <time>2015-11-30T10:16:31Z</time>
      </trkpt>
    </trkseg>
  </trk>
</gpx>